<?xml version="1.0" encoding="UTF-8" standalone="no" ?>
<gpx xmlns="http://www.topografix.com/GPX/1/1" xmlns:xsi="http://www.w3.org/2001/XMLSchema-instance" xsi:schemaLocation="http://www.topografix.com/GPX/1/1 http://www.topografix.com/GPX/1/1/gpx.xsd" version="1.1" creator="VisuGPX - https://www.visugpx.com">
  <metadata>
    <name>C.A.P à Valras-Plage (34)</name>
    <desc><![CDATA[Petite boucle à Valras-Plage du 23/07/2014 avec une bonne ligne droite sur le remblai. ]]></desc>
  </metadata>
  <trk>
    <name><![CDATA[ACTIVE LOG 001]]></name>
    <trkseg>
      <trkpt lat="43.2461" lon="3.29327">
        <ele>1415.6787109</ele>
        <time>2014-07-22T04:51:01Z</time>
      </trkpt>
      <trkpt lat="43.2461" lon="3.29327">
        <ele>1415.6787109</ele>
        <time>2014-07-22T04:51:03Z</time>
      </trkpt>
      <trkpt lat="43.2461" lon="3.29327">
        <ele>1416.6398926</ele>
        <time>2014-07-22T04:51:08Z</time>
      </trkpt>
      <trkpt lat="43.24585" lon="3.29356">
        <ele>1416.6398926</ele>
        <time>2014-07-22T04:51:10Z</time>
      </trkpt>
      <trkpt lat="43.24579" lon="3.29353">
        <ele>1417.6010742</ele>
        <time>2014-07-22T04:51:19Z</time>
      </trkpt>
      <trkpt lat="43.24579" lon="3.29353">
        <ele>1411.8334961</ele>
        <time>2014-07-22T04:51:20Z</time>
      </trkpt>
      <trkpt lat="43.24578" lon="3.29353">
        <ele>1416.6398926</ele>
        <time>2014-07-22T04:51:21Z</time>
      </trkpt>
      <trkpt lat="43.24578" lon="3.29352">
        <ele>1418.5625</ele>
        <time>2014-07-22T04:51:23Z</time>
      </trkpt>
      <trkpt lat="43.24575" lon="3.29353">
        <ele>1412.7946777</ele>
        <time>2014-07-22T04:51:30Z</time>
      </trkpt>
      <trkpt lat="43.24575" lon="3.29354">
        <ele>1414.7172852</ele>
        <time>2014-07-22T04:51:31Z</time>
      </trkpt>
      <trkpt lat="43.24567" lon="3.29352">
        <ele>1418.0817871</ele>
        <time>2014-07-22T04:51:36Z</time>
      </trkpt>
      <trkpt lat="43.24552" lon="3.29328">
        <ele>1412.7946777</ele>
        <time>2014-07-22T04:51:46Z</time>
      </trkpt>
      <trkpt lat="43.2455" lon="3.29326">
        <ele>1414.2365723</ele>
        <time>2014-07-22T04:51:47Z</time>
      </trkpt>
      <trkpt lat="43.24548" lon="3.29321">
        <ele>1419.0432129</ele>
        <time>2014-07-22T04:51:49Z</time>
      </trkpt>
      <trkpt lat="43.24547" lon="3.29319">
        <ele>1415.197998</ele>
        <time>2014-07-22T04:51:50Z</time>
      </trkpt>
      <trkpt lat="43.24541" lon="3.29312">
        <ele>1420.4853516</ele>
        <time>2014-07-22T04:51:54Z</time>
      </trkpt>
      <trkpt lat="43.24539" lon="3.29309">
        <ele>1415.6787109</ele>
        <time>2014-07-22T04:51:55Z</time>
      </trkpt>
      <trkpt lat="43.24538" lon="3.29306">
        <ele>1415.6787109</ele>
        <time>2014-07-22T04:51:56Z</time>
      </trkpt>
      <trkpt lat="43.24535" lon="3.293">
        <ele>1417.1206055</ele>
        <time>2014-07-22T04:51:59Z</time>
      </trkpt>
      <trkpt lat="43.24524" lon="3.29282">
        <ele>1412.3139648</ele>
        <time>2014-07-22T04:52:06Z</time>
      </trkpt>
      <trkpt lat="43.24521" lon="3.2928">
        <ele>1416.6398926</ele>
        <time>2014-07-22T04:52:07Z</time>
      </trkpt>
      <trkpt lat="43.24511" lon="3.29265">
        <ele>1411.8334961</ele>
        <time>2014-07-22T04:52:14Z</time>
      </trkpt>
      <trkpt lat="43.2451" lon="3.29263">
        <ele>1414.7172852</ele>
        <time>2014-07-22T04:52:15Z</time>
      </trkpt>
      <trkpt lat="43.24507" lon="3.29261">
        <ele>1418.0817871</ele>
        <time>2014-07-22T04:52:16Z</time>
      </trkpt>
      <trkpt lat="43.24506" lon="3.29258">
        <ele>1415.6787109</ele>
        <time>2014-07-22T04:52:17Z</time>
      </trkpt>
      <trkpt lat="43.24506" lon="3.29255">
        <ele>1410.8720703</ele>
        <time>2014-07-22T04:52:18Z</time>
      </trkpt>
      <trkpt lat="43.24506" lon="3.29254">
        <ele>1414.7172852</ele>
        <time>2014-07-22T04:52:19Z</time>
      </trkpt>
      <trkpt lat="43.24504" lon="3.29251">
        <ele>1410.8720703</ele>
        <time>2014-07-22T04:52:20Z</time>
      </trkpt>
      <trkpt lat="43.24503" lon="3.29249">
        <ele>1417.1206055</ele>
        <time>2014-07-22T04:52:21Z</time>
      </trkpt>
      <trkpt lat="43.24502" lon="3.29246">
        <ele>1412.3139648</ele>
        <time>2014-07-22T04:52:22Z</time>
      </trkpt>
      <trkpt lat="43.24501" lon="3.29244">
        <ele>1417.6010742</ele>
        <time>2014-07-22T04:52:23Z</time>
      </trkpt>
      <trkpt lat="43.24499" lon="3.29242">
        <ele>1413.2753906</ele>
        <time>2014-07-22T04:52:24Z</time>
      </trkpt>
      <trkpt lat="43.24498" lon="3.29239">
        <ele>1417.1206055</ele>
        <time>2014-07-22T04:52:25Z</time>
      </trkpt>
      <trkpt lat="43.24481" lon="3.29205">
        <ele>1414.2365723</ele>
        <time>2014-07-22T04:52:39Z</time>
      </trkpt>
      <trkpt lat="43.24477" lon="3.29194">
        <ele>1417.6010742</ele>
        <time>2014-07-22T04:52:43Z</time>
      </trkpt>
      <trkpt lat="43.24468" lon="3.29179">
        <ele>1414.2365723</ele>
        <time>2014-07-22T04:52:49Z</time>
      </trkpt>
      <trkpt lat="43.24467" lon="3.29176">
        <ele>1414.7172852</ele>
        <time>2014-07-22T04:52:50Z</time>
      </trkpt>
      <trkpt lat="43.24451" lon="3.29144">
        <ele>1414.2365723</ele>
        <time>2014-07-22T04:53:03Z</time>
      </trkpt>
      <trkpt lat="43.2445" lon="3.29142">
        <ele>1418.0817871</ele>
        <time>2014-07-22T04:53:04Z</time>
      </trkpt>
      <trkpt lat="43.24448" lon="3.2914">
        <ele>1417.6010742</ele>
        <time>2014-07-22T04:53:05Z</time>
      </trkpt>
      <trkpt lat="43.24446" lon="3.29136">
        <ele>1414.2365723</ele>
        <time>2014-07-22T04:53:07Z</time>
      </trkpt>
      <trkpt lat="43.24446" lon="3.29134">
        <ele>1414.7172852</ele>
        <time>2014-07-22T04:53:08Z</time>
      </trkpt>
      <trkpt lat="43.24443" lon="3.29128">
        <ele>1416.1591797</ele>
        <time>2014-07-22T04:53:10Z</time>
      </trkpt>
      <trkpt lat="43.2444" lon="3.29125">
        <ele>1415.197998</ele>
        <time>2014-07-22T04:53:12Z</time>
      </trkpt>
      <trkpt lat="43.24435" lon="3.29107">
        <ele>1419.0432129</ele>
        <time>2014-07-22T04:53:19Z</time>
      </trkpt>
      <trkpt lat="43.24434" lon="3.29105">
        <ele>1414.7172852</ele>
        <time>2014-07-22T04:53:20Z</time>
      </trkpt>
      <trkpt lat="43.24431" lon="3.29098">
        <ele>1418.0817871</ele>
        <time>2014-07-22T04:53:23Z</time>
      </trkpt>
      <trkpt lat="43.24423" lon="3.29083">
        <ele>1412.3139648</ele>
        <time>2014-07-22T04:53:29Z</time>
      </trkpt>
      <trkpt lat="43.24421" lon="3.2908">
        <ele>1413.7558594</ele>
        <time>2014-07-22T04:53:30Z</time>
      </trkpt>
      <trkpt lat="43.24418" lon="3.29076">
        <ele>1416.1591797</ele>
        <time>2014-07-22T04:53:32Z</time>
      </trkpt>
      <trkpt lat="43.24404" lon="3.29045">
        <ele>1420.4853516</ele>
        <time>2014-07-22T04:53:45Z</time>
      </trkpt>
      <trkpt lat="43.24403" lon="3.29042">
        <ele>1415.6787109</ele>
        <time>2014-07-22T04:53:46Z</time>
      </trkpt>
      <trkpt lat="43.24399" lon="3.29035">
        <ele>1417.6010742</ele>
        <time>2014-07-22T04:53:49Z</time>
      </trkpt>
      <trkpt lat="43.24393" lon="3.29019">
        <ele>1419.0432129</ele>
        <time>2014-07-22T04:53:55Z</time>
      </trkpt>
      <trkpt lat="43.2439" lon="3.29012">
        <ele>1413.7558594</ele>
        <time>2014-07-22T04:53:58Z</time>
      </trkpt>
      <trkpt lat="43.24387" lon="3.29003">
        <ele>1418.5625</ele>
        <time>2014-07-22T04:54:01Z</time>
      </trkpt>
      <trkpt lat="43.24386" lon="3.29">
        <ele>1413.7558594</ele>
        <time>2014-07-22T04:54:02Z</time>
      </trkpt>
      <trkpt lat="43.24385" lon="3.28991">
        <ele>1419.5239258</ele>
        <time>2014-07-22T04:54:05Z</time>
      </trkpt>
      <trkpt lat="43.24385" lon="3.28985">
        <ele>1413.7558594</ele>
        <time>2014-07-22T04:54:07Z</time>
      </trkpt>
      <trkpt lat="43.24384" lon="3.28984">
        <ele>1417.6010742</ele>
        <time>2014-07-22T04:54:08Z</time>
      </trkpt>
      <trkpt lat="43.24379" lon="3.28976">
        <ele>1410.3913574</ele>
        <time>2014-07-22T04:54:11Z</time>
      </trkpt>
      <trkpt lat="43.24378" lon="3.28973">
        <ele>1414.2365723</ele>
        <time>2014-07-22T04:54:12Z</time>
      </trkpt>
      <trkpt lat="43.24377" lon="3.28966">
        <ele>1414.7172852</ele>
        <time>2014-07-22T04:54:14Z</time>
      </trkpt>
      <trkpt lat="43.24374" lon="3.2896">
        <ele>1420.0046387</ele>
        <time>2014-07-22T04:54:16Z</time>
      </trkpt>
      <trkpt lat="43.24373" lon="3.28957">
        <ele>1415.6787109</ele>
        <time>2014-07-22T04:54:17Z</time>
      </trkpt>
      <trkpt lat="43.24361" lon="3.28922">
        <ele>1416.6398926</ele>
        <time>2014-07-22T04:54:30Z</time>
      </trkpt>
      <trkpt lat="43.24353" lon="3.28907">
        <ele>1414.7172852</ele>
        <time>2014-07-22T04:54:36Z</time>
      </trkpt>
      <trkpt lat="43.24345" lon="3.28889">
        <ele>1418.0817871</ele>
        <time>2014-07-22T04:54:42Z</time>
      </trkpt>
      <trkpt lat="43.2434" lon="3.28882">
        <ele>1412.7946777</ele>
        <time>2014-07-22T04:54:45Z</time>
      </trkpt>
      <trkpt lat="43.24338" lon="3.28877">
        <ele>1416.1591797</ele>
        <time>2014-07-22T04:54:47Z</time>
      </trkpt>
      <trkpt lat="43.24337" lon="3.28876">
        <ele>1416.1591797</ele>
        <time>2014-07-22T04:54:48Z</time>
      </trkpt>
      <trkpt lat="43.24336" lon="3.28874">
        <ele>1412.3139648</ele>
        <time>2014-07-22T04:54:49Z</time>
      </trkpt>
      <trkpt lat="43.24335" lon="3.28872">
        <ele>1415.6787109</ele>
        <time>2014-07-22T04:54:50Z</time>
      </trkpt>
      <trkpt lat="43.24326" lon="3.28853">
        <ele>1412.7946777</ele>
        <time>2014-07-22T04:54:59Z</time>
      </trkpt>
      <trkpt lat="43.24323" lon="3.28848">
        <ele>1416.1591797</ele>
        <time>2014-07-22T04:55:01Z</time>
      </trkpt>
      <trkpt lat="43.24319" lon="3.28838">
        <ele>1420.0046387</ele>
        <time>2014-07-22T04:55:05Z</time>
      </trkpt>
      <trkpt lat="43.24318" lon="3.28834">
        <ele>1417.1206055</ele>
        <time>2014-07-22T04:55:06Z</time>
      </trkpt>
      <trkpt lat="43.24315" lon="3.28829">
        <ele>1416.1591797</ele>
        <time>2014-07-22T04:55:08Z</time>
      </trkpt>
      <trkpt lat="43.24304" lon="3.28794">
        <ele>1416.6398926</ele>
        <time>2014-07-22T04:55:22Z</time>
      </trkpt>
      <trkpt lat="43.24286" lon="3.28755">
        <ele>1415.197998</ele>
        <time>2014-07-22T04:55:37Z</time>
      </trkpt>
      <trkpt lat="43.2427" lon="3.28723">
        <ele>1415.6787109</ele>
        <time>2014-07-22T04:55:50Z</time>
      </trkpt>
      <trkpt lat="43.24267" lon="3.28717">
        <ele>1419.5239258</ele>
        <time>2014-07-22T04:55:52Z</time>
      </trkpt>
      <trkpt lat="43.24269" lon="3.28714">
        <ele>1416.1591797</ele>
        <time>2014-07-22T04:55:53Z</time>
      </trkpt>
      <trkpt lat="43.24264" lon="3.28707">
        <ele>1420.0046387</ele>
        <time>2014-07-22T04:55:56Z</time>
      </trkpt>
      <trkpt lat="43.24263" lon="3.28704">
        <ele>1416.1591797</ele>
        <time>2014-07-22T04:55:57Z</time>
      </trkpt>
      <trkpt lat="43.24261" lon="3.28697">
        <ele>1419.5239258</ele>
        <time>2014-07-22T04:56:00Z</time>
      </trkpt>
      <trkpt lat="43.2426" lon="3.28694">
        <ele>1419.0432129</ele>
        <time>2014-07-22T04:56:01Z</time>
      </trkpt>
      <trkpt lat="43.24252" lon="3.2868">
        <ele>1412.7946777</ele>
        <time>2014-07-22T04:56:06Z</time>
      </trkpt>
      <trkpt lat="43.2425" lon="3.28677">
        <ele>1417.1206055</ele>
        <time>2014-07-22T04:56:07Z</time>
      </trkpt>
      <trkpt lat="43.24247" lon="3.28669">
        <ele>1413.2753906</ele>
        <time>2014-07-22T04:56:10Z</time>
      </trkpt>
      <trkpt lat="43.24246" lon="3.28667">
        <ele>1417.1206055</ele>
        <time>2014-07-22T04:56:11Z</time>
      </trkpt>
      <trkpt lat="43.2424" lon="3.28641">
        <ele>1412.7946777</ele>
        <time>2014-07-22T04:56:21Z</time>
      </trkpt>
      <trkpt lat="43.24238" lon="3.28633">
        <ele>1417.1206055</ele>
        <time>2014-07-22T04:56:24Z</time>
      </trkpt>
      <trkpt lat="43.24229" lon="3.28616">
        <ele>1412.7946777</ele>
        <time>2014-07-22T04:56:31Z</time>
      </trkpt>
      <trkpt lat="43.24227" lon="3.28613">
        <ele>1418.5625</ele>
        <time>2014-07-22T04:56:32Z</time>
      </trkpt>
      <trkpt lat="43.24225" lon="3.28611">
        <ele>1415.197998</ele>
        <time>2014-07-22T04:56:33Z</time>
      </trkpt>
      <trkpt lat="43.2422" lon="3.28597">
        <ele>1415.6787109</ele>
        <time>2014-07-22T04:56:38Z</time>
      </trkpt>
      <trkpt lat="43.24214" lon="3.28586">
        <ele>1420.0046387</ele>
        <time>2014-07-22T04:56:43Z</time>
      </trkpt>
      <trkpt lat="43.24213" lon="3.28583">
        <ele>1414.2365723</ele>
        <time>2014-07-22T04:56:44Z</time>
      </trkpt>
      <trkpt lat="43.24206" lon="3.28558">
        <ele>1416.1591797</ele>
        <time>2014-07-22T04:56:54Z</time>
      </trkpt>
      <trkpt lat="43.24201" lon="3.2855">
        <ele>1413.2753906</ele>
        <time>2014-07-22T04:56:57Z</time>
      </trkpt>
      <trkpt lat="43.24199" lon="3.28545">
        <ele>1417.1206055</ele>
        <time>2014-07-22T04:56:59Z</time>
      </trkpt>
      <trkpt lat="43.24196" lon="3.2854">
        <ele>1413.2753906</ele>
        <time>2014-07-22T04:57:01Z</time>
      </trkpt>
      <trkpt lat="43.24193" lon="3.28536">
        <ele>1416.6398926</ele>
        <time>2014-07-22T04:57:03Z</time>
      </trkpt>
      <trkpt lat="43.24189" lon="3.28529">
        <ele>1413.2753906</ele>
        <time>2014-07-22T04:57:06Z</time>
      </trkpt>
      <trkpt lat="43.24188" lon="3.28526">
        <ele>1413.7558594</ele>
        <time>2014-07-22T04:57:07Z</time>
      </trkpt>
      <trkpt lat="43.24176" lon="3.28501">
        <ele>1415.6787109</ele>
        <time>2014-07-22T04:57:17Z</time>
      </trkpt>
      <trkpt lat="43.24175" lon="3.28498">
        <ele>1415.197998</ele>
        <time>2014-07-22T04:57:18Z</time>
      </trkpt>
      <trkpt lat="43.24167" lon="3.28473">
        <ele>1415.6787109</ele>
        <time>2014-07-22T04:57:28Z</time>
      </trkpt>
      <trkpt lat="43.24165" lon="3.28467">
        <ele>1413.2753906</ele>
        <time>2014-07-22T04:57:30Z</time>
      </trkpt>
      <trkpt lat="43.2416" lon="3.28451">
        <ele>1416.6398926</ele>
        <time>2014-07-22T04:57:36Z</time>
      </trkpt>
      <trkpt lat="43.24157" lon="3.28443">
        <ele>1411.3527832</ele>
        <time>2014-07-22T04:57:39Z</time>
      </trkpt>
      <trkpt lat="43.24156" lon="3.28439">
        <ele>1414.7172852</ele>
        <time>2014-07-22T04:57:40Z</time>
      </trkpt>
      <trkpt lat="43.24147" lon="3.28423">
        <ele>1411.3527832</ele>
        <time>2014-07-22T04:57:47Z</time>
      </trkpt>
      <trkpt lat="43.24145" lon="3.28421">
        <ele>1414.7172852</ele>
        <time>2014-07-22T04:57:48Z</time>
      </trkpt>
      <trkpt lat="43.2414" lon="3.2841">
        <ele>1418.0817871</ele>
        <time>2014-07-22T04:57:52Z</time>
      </trkpt>
      <trkpt lat="43.24139" lon="3.28408">
        <ele>1415.197998</ele>
        <time>2014-07-22T04:57:53Z</time>
      </trkpt>
      <trkpt lat="43.24138" lon="3.28405">
        <ele>1420.0046387</ele>
        <time>2014-07-22T04:57:54Z</time>
      </trkpt>
      <trkpt lat="43.24136" lon="3.28403">
        <ele>1416.1591797</ele>
        <time>2014-07-22T04:57:55Z</time>
      </trkpt>
      <trkpt lat="43.24134" lon="3.28397">
        <ele>1413.2753906</ele>
        <time>2014-07-22T04:57:57Z</time>
      </trkpt>
      <trkpt lat="43.24132" lon="3.28394">
        <ele>1408.46875</ele>
        <time>2014-07-22T04:57:58Z</time>
      </trkpt>
      <trkpt lat="43.24131" lon="3.28391">
        <ele>1414.7172852</ele>
        <time>2014-07-22T04:57:59Z</time>
      </trkpt>
      <trkpt lat="43.24129" lon="3.28389">
        <ele>1418.5625</ele>
        <time>2014-07-22T04:58:00Z</time>
      </trkpt>
      <trkpt lat="43.24129" lon="3.28386">
        <ele>1416.1591797</ele>
        <time>2014-07-22T04:58:01Z</time>
      </trkpt>
      <trkpt lat="43.24125" lon="3.28382">
        <ele>1414.2365723</ele>
        <time>2014-07-22T04:58:03Z</time>
      </trkpt>
      <trkpt lat="43.24123" lon="3.28377">
        <ele>1417.1206055</ele>
        <time>2014-07-22T04:58:05Z</time>
      </trkpt>
      <trkpt lat="43.24123" lon="3.28373">
        <ele>1414.2365723</ele>
        <time>2014-07-22T04:58:07Z</time>
      </trkpt>
      <trkpt lat="43.2411" lon="3.28337">
        <ele>1413.7558594</ele>
        <time>2014-07-22T04:58:21Z</time>
      </trkpt>
      <trkpt lat="43.2411" lon="3.28334">
        <ele>1416.6398926</ele>
        <time>2014-07-22T04:58:22Z</time>
      </trkpt>
      <trkpt lat="43.24107" lon="3.28327">
        <ele>1416.6398926</ele>
        <time>2014-07-22T04:58:25Z</time>
      </trkpt>
      <trkpt lat="43.24107" lon="3.2832">
        <ele>1414.7172852</ele>
        <time>2014-07-22T04:58:27Z</time>
      </trkpt>
      <trkpt lat="43.24104" lon="3.28316">
        <ele>1418.0817871</ele>
        <time>2014-07-22T04:58:29Z</time>
      </trkpt>
      <trkpt lat="43.241" lon="3.28309">
        <ele>1411.8334961</ele>
        <time>2014-07-22T04:58:32Z</time>
      </trkpt>
      <trkpt lat="43.24096" lon="3.28302">
        <ele>1421.4465332</ele>
        <time>2014-07-22T04:58:35Z</time>
      </trkpt>
      <trkpt lat="43.24095" lon="3.28299">
        <ele>1414.2365723</ele>
        <time>2014-07-22T04:58:36Z</time>
      </trkpt>
      <trkpt lat="43.24084" lon="3.2827">
        <ele>1417.1206055</ele>
        <time>2014-07-22T04:58:47Z</time>
      </trkpt>
      <trkpt lat="43.24081" lon="3.28265">
        <ele>1413.2753906</ele>
        <time>2014-07-22T04:58:49Z</time>
      </trkpt>
      <trkpt lat="43.24078" lon="3.28257">
        <ele>1414.7172852</ele>
        <time>2014-07-22T04:58:52Z</time>
      </trkpt>
      <trkpt lat="43.24071" lon="3.2824">
        <ele>1417.1206055</ele>
        <time>2014-07-22T04:58:59Z</time>
      </trkpt>
      <trkpt lat="43.24065" lon="3.28229">
        <ele>1413.2753906</ele>
        <time>2014-07-22T04:59:03Z</time>
      </trkpt>
      <trkpt lat="43.24064" lon="3.28225">
        <ele>1415.6787109</ele>
        <time>2014-07-22T04:59:04Z</time>
      </trkpt>
      <trkpt lat="43.24058" lon="3.28209">
        <ele>1414.2365723</ele>
        <time>2014-07-22T04:59:11Z</time>
      </trkpt>
      <trkpt lat="43.24055" lon="3.28198">
        <ele>1418.0817871</ele>
        <time>2014-07-22T04:59:15Z</time>
      </trkpt>
      <trkpt lat="43.24053" lon="3.28196">
        <ele>1415.6787109</ele>
        <time>2014-07-22T04:59:16Z</time>
      </trkpt>
      <trkpt lat="43.24052" lon="3.28194">
        <ele>1411.8334961</ele>
        <time>2014-07-22T04:59:17Z</time>
      </trkpt>
      <trkpt lat="43.24052" lon="3.28191">
        <ele>1414.7172852</ele>
        <time>2014-07-22T04:59:18Z</time>
      </trkpt>
      <trkpt lat="43.24045" lon="3.28177">
        <ele>1411.8334961</ele>
        <time>2014-07-22T04:59:23Z</time>
      </trkpt>
      <trkpt lat="43.24044" lon="3.28175">
        <ele>1414.2365723</ele>
        <time>2014-07-22T04:59:24Z</time>
      </trkpt>
      <trkpt lat="43.24037" lon="3.28159">
        <ele>1417.6010742</ele>
        <time>2014-07-22T04:59:30Z</time>
      </trkpt>
      <trkpt lat="43.24034" lon="3.28152">
        <ele>1413.7558594</ele>
        <time>2014-07-22T04:59:33Z</time>
      </trkpt>
      <trkpt lat="43.24033" lon="3.28147">
        <ele>1413.2753906</ele>
        <time>2014-07-22T04:59:35Z</time>
      </trkpt>
      <trkpt lat="43.24033" lon="3.28152">
        <ele>1414.7172852</ele>
        <time>2014-07-22T04:59:39Z</time>
      </trkpt>
      <trkpt lat="43.24047" lon="3.28168">
        <ele>1414.7172852</ele>
        <time>2014-07-22T04:59:47Z</time>
      </trkpt>
      <trkpt lat="43.24059" lon="3.282">
        <ele>1416.1591797</ele>
        <time>2014-07-22T05:00:00Z</time>
      </trkpt>
      <trkpt lat="43.24066" lon="3.28217">
        <ele>1411.8334961</ele>
        <time>2014-07-22T05:00:06Z</time>
      </trkpt>
      <trkpt lat="43.24067" lon="3.2822">
        <ele>1412.7946777</ele>
        <time>2014-07-22T05:00:07Z</time>
      </trkpt>
      <trkpt lat="43.24073" lon="3.28234">
        <ele>1416.6398926</ele>
        <time>2014-07-22T05:00:12Z</time>
      </trkpt>
      <trkpt lat="43.24076" lon="3.28245">
        <ele>1416.6398926</ele>
        <time>2014-07-22T05:00:16Z</time>
      </trkpt>
      <trkpt lat="43.24079" lon="3.28254">
        <ele>1413.7558594</ele>
        <time>2014-07-22T05:00:19Z</time>
      </trkpt>
      <trkpt lat="43.24091" lon="3.28281">
        <ele>1415.197998</ele>
        <time>2014-07-22T05:00:29Z</time>
      </trkpt>
      <trkpt lat="43.24092" lon="3.28284">
        <ele>1411.8334961</ele>
        <time>2014-07-22T05:00:30Z</time>
      </trkpt>
      <trkpt lat="43.24093" lon="3.28286">
        <ele>1413.7558594</ele>
        <time>2014-07-22T05:00:31Z</time>
      </trkpt>
      <trkpt lat="43.24102" lon="3.28304">
        <ele>1414.7172852</ele>
        <time>2014-07-22T05:00:37Z</time>
      </trkpt>
      <trkpt lat="43.24108" lon="3.28318">
        <ele>1410.8720703</ele>
        <time>2014-07-22T05:00:42Z</time>
      </trkpt>
      <trkpt lat="43.2411" lon="3.28324">
        <ele>1414.2365723</ele>
        <time>2014-07-22T05:00:44Z</time>
      </trkpt>
      <trkpt lat="43.24118" lon="3.28349">
        <ele>1409.9106445</ele>
        <time>2014-07-22T05:00:54Z</time>
      </trkpt>
      <trkpt lat="43.24119" lon="3.28351">
        <ele>1413.7558594</ele>
        <time>2014-07-22T05:00:55Z</time>
      </trkpt>
      <trkpt lat="43.24125" lon="3.28367">
        <ele>1416.1591797</ele>
        <time>2014-07-22T05:01:01Z</time>
      </trkpt>
      <trkpt lat="43.24127" lon="3.28372">
        <ele>1413.7558594</ele>
        <time>2014-07-22T05:01:03Z</time>
      </trkpt>
      <trkpt lat="43.24132" lon="3.28383">
        <ele>1414.7172852</ele>
        <time>2014-07-22T05:01:07Z</time>
      </trkpt>
      <trkpt lat="43.24141" lon="3.28406">
        <ele>1413.2753906</ele>
        <time>2014-07-22T05:01:15Z</time>
      </trkpt>
      <trkpt lat="43.24155" lon="3.28437">
        <ele>1408.9494629</ele>
        <time>2014-07-22T05:01:27Z</time>
      </trkpt>
      <trkpt lat="43.24156" lon="3.2844">
        <ele>1415.197998</ele>
        <time>2014-07-22T05:01:28Z</time>
      </trkpt>
      <trkpt lat="43.24158" lon="3.28445">
        <ele>1411.3527832</ele>
        <time>2014-07-22T05:01:30Z</time>
      </trkpt>
      <trkpt lat="43.24159" lon="3.28447">
        <ele>1415.6787109</ele>
        <time>2014-07-22T05:01:31Z</time>
      </trkpt>
      <trkpt lat="43.24161" lon="3.28449">
        <ele>1412.3139648</ele>
        <time>2014-07-22T05:01:32Z</time>
      </trkpt>
      <trkpt lat="43.24163" lon="3.28455">
        <ele>1417.1206055</ele>
        <time>2014-07-22T05:01:34Z</time>
      </trkpt>
      <trkpt lat="43.24164" lon="3.28458">
        <ele>1413.7558594</ele>
        <time>2014-07-22T05:01:35Z</time>
      </trkpt>
      <trkpt lat="43.24166" lon="3.28463">
        <ele>1412.3139648</ele>
        <time>2014-07-22T05:01:37Z</time>
      </trkpt>
      <trkpt lat="43.24168" lon="3.28466">
        <ele>1415.6787109</ele>
        <time>2014-07-22T05:01:38Z</time>
      </trkpt>
      <trkpt lat="43.24171" lon="3.28475">
        <ele>1413.2753906</ele>
        <time>2014-07-22T05:01:41Z</time>
      </trkpt>
      <trkpt lat="43.24188" lon="3.28519">
        <ele>1411.8334961</ele>
        <time>2014-07-22T05:01:57Z</time>
      </trkpt>
      <trkpt lat="43.2419" lon="3.28522">
        <ele>1412.7946777</ele>
        <time>2014-07-22T05:01:58Z</time>
      </trkpt>
      <trkpt lat="43.24191" lon="3.28525">
        <ele>1416.6398926</ele>
        <time>2014-07-22T05:01:59Z</time>
      </trkpt>
      <trkpt lat="43.24193" lon="3.28528">
        <ele>1415.197998</ele>
        <time>2014-07-22T05:02:00Z</time>
      </trkpt>
      <trkpt lat="43.24195" lon="3.28532">
        <ele>1413.2753906</ele>
        <time>2014-07-22T05:02:02Z</time>
      </trkpt>
      <trkpt lat="43.24199" lon="3.28541">
        <ele>1416.6398926</ele>
        <time>2014-07-22T05:02:05Z</time>
      </trkpt>
      <trkpt lat="43.24202" lon="3.28545">
        <ele>1413.2753906</ele>
        <time>2014-07-22T05:02:07Z</time>
      </trkpt>
      <trkpt lat="43.24215" lon="3.28577">
        <ele>1415.197998</ele>
        <time>2014-07-22T05:02:19Z</time>
      </trkpt>
      <trkpt lat="43.24231" lon="3.28614">
        <ele>1410.8720703</ele>
        <time>2014-07-22T05:02:34Z</time>
      </trkpt>
      <trkpt lat="43.24232" lon="3.28617">
        <ele>1414.2365723</ele>
        <time>2014-07-22T05:02:35Z</time>
      </trkpt>
      <trkpt lat="43.24246" lon="3.28654">
        <ele>1412.3139648</ele>
        <time>2014-07-22T05:02:49Z</time>
      </trkpt>
      <trkpt lat="43.24249" lon="3.28662">
        <ele>1413.7558594</ele>
        <time>2014-07-22T05:02:52Z</time>
      </trkpt>
      <trkpt lat="43.24261" lon="3.28688">
        <ele>1417.1206055</ele>
        <time>2014-07-22T05:03:02Z</time>
      </trkpt>
      <trkpt lat="43.24264" lon="3.28696">
        <ele>1413.2753906</ele>
        <time>2014-07-22T05:03:05Z</time>
      </trkpt>
      <trkpt lat="43.24272" lon="3.28714">
        <ele>1416.6398926</ele>
        <time>2014-07-22T05:03:12Z</time>
      </trkpt>
      <trkpt lat="43.24281" lon="3.28736">
        <ele>1413.2753906</ele>
        <time>2014-07-22T05:03:20Z</time>
      </trkpt>
      <trkpt lat="43.24283" lon="3.28739">
        <ele>1413.2753906</ele>
        <time>2014-07-22T05:03:21Z</time>
      </trkpt>
      <trkpt lat="43.24291" lon="3.28759">
        <ele>1414.2365723</ele>
        <time>2014-07-22T05:03:29Z</time>
      </trkpt>
      <trkpt lat="43.24292" lon="3.2876">
        <ele>1418.0817871</ele>
        <time>2014-07-22T05:03:30Z</time>
      </trkpt>
      <trkpt lat="43.24293" lon="3.28762">
        <ele>1412.7946777</ele>
        <time>2014-07-22T05:03:31Z</time>
      </trkpt>
      <trkpt lat="43.24294" lon="3.28765">
        <ele>1416.6398926</ele>
        <time>2014-07-22T05:03:32Z</time>
      </trkpt>
      <trkpt lat="43.24302" lon="3.28781">
        <ele>1410.8720703</ele>
        <time>2014-07-22T05:03:38Z</time>
      </trkpt>
      <trkpt lat="43.24303" lon="3.28783">
        <ele>1412.7946777</ele>
        <time>2014-07-22T05:03:39Z</time>
      </trkpt>
      <trkpt lat="43.24304" lon="3.28786">
        <ele>1415.6787109</ele>
        <time>2014-07-22T05:03:40Z</time>
      </trkpt>
      <trkpt lat="43.24305" lon="3.28788">
        <ele>1414.7172852</ele>
        <time>2014-07-22T05:03:41Z</time>
      </trkpt>
      <trkpt lat="43.24314" lon="3.28811">
        <ele>1409.9106445</ele>
        <time>2014-07-22T05:03:50Z</time>
      </trkpt>
      <trkpt lat="43.24322" lon="3.28811">
        <ele>1416.6398926</ele>
        <time>2014-07-22T05:03:54Z</time>
      </trkpt>
      <trkpt lat="43.24326" lon="3.28812">
        <ele>1410.3913574</ele>
        <time>2014-07-22T05:03:56Z</time>
      </trkpt>
      <trkpt lat="43.24331" lon="3.28812">
        <ele>1414.2365723</ele>
        <time>2014-07-22T05:03:58Z</time>
      </trkpt>
      <trkpt lat="43.24333" lon="3.28812">
        <ele>1411.8334961</ele>
        <time>2014-07-22T05:03:59Z</time>
      </trkpt>
      <trkpt lat="43.24337" lon="3.28815">
        <ele>1417.6010742</ele>
        <time>2014-07-22T05:04:01Z</time>
      </trkpt>
      <trkpt lat="43.24339" lon="3.28819">
        <ele>1417.1206055</ele>
        <time>2014-07-22T05:04:03Z</time>
      </trkpt>
      <trkpt lat="43.2434" lon="3.28822">
        <ele>1413.7558594</ele>
        <time>2014-07-22T05:04:04Z</time>
      </trkpt>
      <trkpt lat="43.24343" lon="3.28831">
        <ele>1418.5625</ele>
        <time>2014-07-22T05:04:07Z</time>
      </trkpt>
      <trkpt lat="43.24344" lon="3.28835">
        <ele>1414.7172852</ele>
        <time>2014-07-22T05:04:08Z</time>
      </trkpt>
      <trkpt lat="43.24348" lon="3.28846">
        <ele>1422.8886719</ele>
        <time>2014-07-22T05:04:12Z</time>
      </trkpt>
      <trkpt lat="43.24349" lon="3.28847">
        <ele>1418.5625</ele>
        <time>2014-07-22T05:04:13Z</time>
      </trkpt>
      <trkpt lat="43.24348" lon="3.28846">
        <ele>1416.1591797</ele>
        <time>2014-07-22T05:04:14Z</time>
      </trkpt>
      <trkpt lat="43.24354" lon="3.28835">
        <ele>1411.8334961</ele>
        <time>2014-07-22T05:04:21Z</time>
      </trkpt>
      <trkpt lat="43.24357" lon="3.28834">
        <ele>1417.1206055</ele>
        <time>2014-07-22T05:04:22Z</time>
      </trkpt>
      <trkpt lat="43.24358" lon="3.28833">
        <ele>1412.7946777</ele>
        <time>2014-07-22T05:04:23Z</time>
      </trkpt>
      <trkpt lat="43.2436" lon="3.28832">
        <ele>1415.197998</ele>
        <time>2014-07-22T05:04:24Z</time>
      </trkpt>
      <trkpt lat="43.24362" lon="3.28832">
        <ele>1415.197998</ele>
        <time>2014-07-22T05:04:26Z</time>
      </trkpt>
      <trkpt lat="43.24366" lon="3.2883">
        <ele>1415.6787109</ele>
        <time>2014-07-22T05:04:29Z</time>
      </trkpt>
      <trkpt lat="43.2437" lon="3.28827">
        <ele>1412.3139648</ele>
        <time>2014-07-22T05:04:31Z</time>
      </trkpt>
      <trkpt lat="43.24371" lon="3.28826">
        <ele>1413.2753906</ele>
        <time>2014-07-22T05:04:32Z</time>
      </trkpt>
      <trkpt lat="43.24376" lon="3.28826">
        <ele>1416.1591797</ele>
        <time>2014-07-22T05:04:33Z</time>
      </trkpt>
      <trkpt lat="43.24377" lon="3.28824">
        <ele>1415.6787109</ele>
        <time>2014-07-22T05:04:34Z</time>
      </trkpt>
      <trkpt lat="43.24387" lon="3.28816">
        <ele>1413.2753906</ele>
        <time>2014-07-22T05:04:39Z</time>
      </trkpt>
      <trkpt lat="43.24405" lon="3.28838">
        <ele>1414.7172852</ele>
        <time>2014-07-22T05:04:51Z</time>
      </trkpt>
      <trkpt lat="43.24414" lon="3.28855">
        <ele>1413.2753906</ele>
        <time>2014-07-22T05:04:58Z</time>
      </trkpt>
      <trkpt lat="43.24426" lon="3.28885">
        <ele>1411.8334961</ele>
        <time>2014-07-22T05:05:11Z</time>
      </trkpt>
      <trkpt lat="43.24426" lon="3.28887">
        <ele>1413.2753906</ele>
        <time>2014-07-22T05:05:12Z</time>
      </trkpt>
      <trkpt lat="43.24427" lon="3.28893">
        <ele>1416.6398926</ele>
        <time>2014-07-22T05:05:14Z</time>
      </trkpt>
      <trkpt lat="43.2443" lon="3.28897">
        <ele>1407.9882813</ele>
        <time>2014-07-22T05:05:15Z</time>
      </trkpt>
      <trkpt lat="43.24432" lon="3.28898">
        <ele>1414.2365723</ele>
        <time>2014-07-22T05:05:16Z</time>
      </trkpt>
      <trkpt lat="43.24433" lon="3.28904">
        <ele>1418.0817871</ele>
        <time>2014-07-22T05:05:18Z</time>
      </trkpt>
      <trkpt lat="43.24434" lon="3.28907">
        <ele>1414.2365723</ele>
        <time>2014-07-22T05:05:19Z</time>
      </trkpt>
      <trkpt lat="43.24439" lon="3.28919">
        <ele>1415.6787109</ele>
        <time>2014-07-22T05:05:24Z</time>
      </trkpt>
      <trkpt lat="43.2445" lon="3.28943">
        <ele>1410.3913574</ele>
        <time>2014-07-22T05:05:32Z</time>
      </trkpt>
      <trkpt lat="43.2445" lon="3.28948">
        <ele>1415.6787109</ele>
        <time>2014-07-22T05:05:34Z</time>
      </trkpt>
      <trkpt lat="43.24451" lon="3.28952">
        <ele>1412.7946777</ele>
        <time>2014-07-22T05:05:35Z</time>
      </trkpt>
      <trkpt lat="43.24455" lon="3.28962">
        <ele>1415.6787109</ele>
        <time>2014-07-22T05:05:40Z</time>
      </trkpt>
      <trkpt lat="43.24462" lon="3.28978">
        <ele>1413.7558594</ele>
        <time>2014-07-22T05:05:46Z</time>
      </trkpt>
      <trkpt lat="43.24471" lon="3.28999">
        <ele>1416.6398926</ele>
        <time>2014-07-22T05:05:54Z</time>
      </trkpt>
      <trkpt lat="43.24473" lon="3.29005">
        <ele>1413.2753906</ele>
        <time>2014-07-22T05:05:56Z</time>
      </trkpt>
      <trkpt lat="43.24485" lon="3.29031">
        <ele>1415.197998</ele>
        <time>2014-07-22T05:06:05Z</time>
      </trkpt>
      <trkpt lat="43.24486" lon="3.29034">
        <ele>1411.8334961</ele>
        <time>2014-07-22T05:06:06Z</time>
      </trkpt>
      <trkpt lat="43.24487" lon="3.29036">
        <ele>1411.8334961</ele>
        <time>2014-07-22T05:06:07Z</time>
      </trkpt>
      <trkpt lat="43.24488" lon="3.29039">
        <ele>1415.6787109</ele>
        <time>2014-07-22T05:06:08Z</time>
      </trkpt>
      <trkpt lat="43.24489" lon="3.29043">
        <ele>1414.7172852</ele>
        <time>2014-07-22T05:06:09Z</time>
      </trkpt>
      <trkpt lat="43.24493" lon="3.2905">
        <ele>1413.7558594</ele>
        <time>2014-07-22T05:06:12Z</time>
      </trkpt>
      <trkpt lat="43.24494" lon="3.29055">
        <ele>1408.9494629</ele>
        <time>2014-07-22T05:06:14Z</time>
      </trkpt>
      <trkpt lat="43.24495" lon="3.29058">
        <ele>1413.7558594</ele>
        <time>2014-07-22T05:06:15Z</time>
      </trkpt>
      <trkpt lat="43.24508" lon="3.29086">
        <ele>1409.9106445</ele>
        <time>2014-07-22T05:06:28Z</time>
      </trkpt>
      <trkpt lat="43.24509" lon="3.29088">
        <ele>1413.7558594</ele>
        <time>2014-07-22T05:06:29Z</time>
      </trkpt>
      <trkpt lat="43.24515" lon="3.29103">
        <ele>1410.3913574</ele>
        <time>2014-07-22T05:06:36Z</time>
      </trkpt>
      <trkpt lat="43.24521" lon="3.29108">
        <ele>1414.7172852</ele>
        <time>2014-07-22T05:06:39Z</time>
      </trkpt>
      <trkpt lat="43.2452" lon="3.2911">
        <ele>1414.7172852</ele>
        <time>2014-07-22T05:06:40Z</time>
      </trkpt>
      <trkpt lat="43.24522" lon="3.29116">
        <ele>1412.3139648</ele>
        <time>2014-07-22T05:06:42Z</time>
      </trkpt>
      <trkpt lat="43.24529" lon="3.29125">
        <ele>1412.7946777</ele>
        <time>2014-07-22T05:06:47Z</time>
      </trkpt>
      <trkpt lat="43.24532" lon="3.2913">
        <ele>1414.2365723</ele>
        <time>2014-07-22T05:06:49Z</time>
      </trkpt>
      <trkpt lat="43.24539" lon="3.2914">
        <ele>1417.1206055</ele>
        <time>2014-07-22T05:06:54Z</time>
      </trkpt>
      <trkpt lat="43.2454" lon="3.29143">
        <ele>1415.197998</ele>
        <time>2014-07-22T05:06:55Z</time>
      </trkpt>
      <trkpt lat="43.24542" lon="3.29155">
        <ele>1411.8334961</ele>
        <time>2014-07-22T05:06:58Z</time>
      </trkpt>
      <trkpt lat="43.24545" lon="3.29159">
        <ele>1414.7172852</ele>
        <time>2014-07-22T05:07:02Z</time>
      </trkpt>
      <trkpt lat="43.24551" lon="3.29164">
        <ele>1411.3527832</ele>
        <time>2014-07-22T05:07:05Z</time>
      </trkpt>
      <trkpt lat="43.24553" lon="3.29168">
        <ele>1413.7558594</ele>
        <time>2014-07-22T05:07:07Z</time>
      </trkpt>
      <trkpt lat="43.24555" lon="3.2917">
        <ele>1410.3913574</ele>
        <time>2014-07-22T05:07:08Z</time>
      </trkpt>
      <trkpt lat="43.24562" lon="3.29179">
        <ele>1415.197998</ele>
        <time>2014-07-22T05:07:12Z</time>
      </trkpt>
      <trkpt lat="43.24569" lon="3.29196">
        <ele>1411.3527832</ele>
        <time>2014-07-22T05:07:18Z</time>
      </trkpt>
      <trkpt lat="43.24569" lon="3.29199">
        <ele>1412.3139648</ele>
        <time>2014-07-22T05:07:19Z</time>
      </trkpt>
      <trkpt lat="43.24576" lon="3.29213">
        <ele>1411.3527832</ele>
        <time>2014-07-22T05:07:26Z</time>
      </trkpt>
      <trkpt lat="43.24577" lon="3.29218">
        <ele>1413.7558594</ele>
        <time>2014-07-22T05:07:28Z</time>
      </trkpt>
      <trkpt lat="43.24591" lon="3.29242">
        <ele>1414.2365723</ele>
        <time>2014-07-22T05:07:41Z</time>
      </trkpt>
      <trkpt lat="43.24597" lon="3.29247">
        <ele>1415.197998</ele>
        <time>2014-07-22T05:07:48Z</time>
      </trkpt>
      <trkpt lat="43.24593" lon="3.29254">
        <ele>1409.9106445</ele>
        <time>2014-07-22T05:07:50Z</time>
      </trkpt>
      <trkpt lat="43.2459" lon="3.29258">
        <ele>1413.7558594</ele>
        <time>2014-07-22T05:07:51Z</time>
      </trkpt>
      <trkpt lat="43.246" lon="3.29273">
        <ele>1412.7946777</ele>
        <time>2014-07-22T05:08:01Z</time>
      </trkpt>
      <trkpt lat="43.24607" lon="3.29287">
        <ele>1414.2365723</ele>
        <time>2014-07-22T05:08:06Z</time>
      </trkpt>
      <trkpt lat="43.24607" lon="3.29295">
        <ele>1413.2753906</ele>
        <time>2014-07-22T05:08:08Z</time>
      </trkpt>
      <trkpt lat="43.24609" lon="3.29299">
        <ele>1410.3913574</ele>
        <time>2014-07-22T05:08:09Z</time>
      </trkpt>
      <trkpt lat="43.24617" lon="3.29311">
        <ele>1414.7172852</ele>
        <time>2014-07-22T05:08:12Z</time>
      </trkpt>
      <trkpt lat="43.24644" lon="3.29356">
        <ele>1413.2753906</ele>
        <time>2014-07-22T05:08:24Z</time>
      </trkpt>
      <trkpt lat="43.24654" lon="3.29368">
        <ele>1413.7558594</ele>
        <time>2014-07-22T05:08:28Z</time>
      </trkpt>
      <trkpt lat="43.24661" lon="3.29382">
        <ele>1411.8334961</ele>
        <time>2014-07-22T05:08:33Z</time>
      </trkpt>
      <trkpt lat="43.24667" lon="3.29389">
        <ele>1414.7172852</ele>
        <time>2014-07-22T05:08:37Z</time>
      </trkpt>
      <trkpt lat="43.24674" lon="3.29403">
        <ele>1414.7172852</ele>
        <time>2014-07-22T05:08:43Z</time>
      </trkpt>
      <trkpt lat="43.24672" lon="3.2941">
        <ele>1413.7558594</ele>
        <time>2014-07-22T05:08:45Z</time>
      </trkpt>
      <trkpt lat="43.24672" lon="3.29414">
        <ele>1418.0817871</ele>
        <time>2014-07-22T05:08:46Z</time>
      </trkpt>
      <trkpt lat="43.24676" lon="3.2942">
        <ele>1413.2753906</ele>
        <time>2014-07-22T05:08:49Z</time>
      </trkpt>
      <trkpt lat="43.24677" lon="3.29422">
        <ele>1413.2753906</ele>
        <time>2014-07-22T05:08:50Z</time>
      </trkpt>
      <trkpt lat="43.24678" lon="3.29425">
        <ele>1412.7946777</ele>
        <time>2014-07-22T05:08:51Z</time>
      </trkpt>
      <trkpt lat="43.24681" lon="3.29432">
        <ele>1415.197998</ele>
        <time>2014-07-22T05:08:54Z</time>
      </trkpt>
      <trkpt lat="43.24685" lon="3.29437">
        <ele>1414.2365723</ele>
        <time>2014-07-22T05:08:57Z</time>
      </trkpt>
      <trkpt lat="43.24689" lon="3.29446">
        <ele>1414.7172852</ele>
        <time>2014-07-22T05:09:01Z</time>
      </trkpt>
      <trkpt lat="43.24696" lon="3.29455">
        <ele>1415.197998</ele>
        <time>2014-07-22T05:09:05Z</time>
      </trkpt>
      <trkpt lat="43.2472" lon="3.29495">
        <ele>1413.7558594</ele>
        <time>2014-07-22T05:09:19Z</time>
      </trkpt>
      <trkpt lat="43.24726" lon="3.29513">
        <ele>1414.2365723</ele>
        <time>2014-07-22T05:09:24Z</time>
      </trkpt>
      <trkpt lat="43.24727" lon="3.29516">
        <ele>1415.197998</ele>
        <time>2014-07-22T05:09:25Z</time>
      </trkpt>
      <trkpt lat="43.24739" lon="3.29529">
        <ele>1413.7558594</ele>
        <time>2014-07-22T05:09:31Z</time>
      </trkpt>
      <trkpt lat="43.2474" lon="3.29537">
        <ele>1412.7946777</ele>
        <time>2014-07-22T05:09:34Z</time>
      </trkpt>
      <trkpt lat="43.24731" lon="3.29546">
        <ele>1415.6787109</ele>
        <time>2014-07-22T05:09:40Z</time>
      </trkpt>
      <trkpt lat="43.24726" lon="3.29555">
        <ele>1410.3913574</ele>
        <time>2014-07-22T05:09:44Z</time>
      </trkpt>
      <trkpt lat="43.24724" lon="3.29557">
        <ele>1415.6787109</ele>
        <time>2014-07-22T05:09:45Z</time>
      </trkpt>
      <trkpt lat="43.24721" lon="3.29563">
        <ele>1411.3527832</ele>
        <time>2014-07-22T05:09:48Z</time>
      </trkpt>
      <trkpt lat="43.24719" lon="3.29565">
        <ele>1412.7946777</ele>
        <time>2014-07-22T05:09:49Z</time>
      </trkpt>
      <trkpt lat="43.24718" lon="3.29566">
        <ele>1416.1591797</ele>
        <time>2014-07-22T05:09:50Z</time>
      </trkpt>
      <trkpt lat="43.24716" lon="3.29568">
        <ele>1414.2365723</ele>
        <time>2014-07-22T05:09:51Z</time>
      </trkpt>
      <trkpt lat="43.24702" lon="3.29577">
        <ele>1415.197998</ele>
        <time>2014-07-22T05:10:00Z</time>
      </trkpt>
      <trkpt lat="43.24697" lon="3.29584">
        <ele>1415.197998</ele>
        <time>2014-07-22T05:10:04Z</time>
      </trkpt>
      <trkpt lat="43.24686" lon="3.29588">
        <ele>1414.2365723</ele>
        <time>2014-07-22T05:10:11Z</time>
      </trkpt>
      <trkpt lat="43.24674" lon="3.29558">
        <ele>1418.0817871</ele>
        <time>2014-07-22T05:10:23Z</time>
      </trkpt>
      <trkpt lat="43.24673" lon="3.29553">
        <ele>1414.2365723</ele>
        <time>2014-07-22T05:10:25Z</time>
      </trkpt>
      <trkpt lat="43.24672" lon="3.2955">
        <ele>1418.5625</ele>
        <time>2014-07-22T05:10:26Z</time>
      </trkpt>
      <trkpt lat="43.24672" lon="3.29548">
        <ele>1415.197998</ele>
        <time>2014-07-22T05:10:27Z</time>
      </trkpt>
      <trkpt lat="43.24665" lon="3.29537">
        <ele>1409.4301758</ele>
        <time>2014-07-22T05:10:32Z</time>
      </trkpt>
      <trkpt lat="43.24664" lon="3.29535">
        <ele>1416.1591797</ele>
        <time>2014-07-22T05:10:33Z</time>
      </trkpt>
      <trkpt lat="43.2466" lon="3.29527">
        <ele>1414.7172852</ele>
        <time>2014-07-22T05:10:36Z</time>
      </trkpt>
      <trkpt lat="43.24655" lon="3.29508">
        <ele>1410.8720703</ele>
        <time>2014-07-22T05:10:43Z</time>
      </trkpt>
      <trkpt lat="43.24654" lon="3.29505">
        <ele>1416.1591797</ele>
        <time>2014-07-22T05:10:44Z</time>
      </trkpt>
      <trkpt lat="43.24637" lon="3.29475">
        <ele>1413.2753906</ele>
        <time>2014-07-22T05:10:56Z</time>
      </trkpt>
      <trkpt lat="43.24632" lon="3.29464">
        <ele>1415.6787109</ele>
        <time>2014-07-22T05:11:00Z</time>
      </trkpt>
      <trkpt lat="43.2463" lon="3.29461">
        <ele>1410.8720703</ele>
        <time>2014-07-22T05:11:01Z</time>
      </trkpt>
      <trkpt lat="43.24627" lon="3.29459">
        <ele>1412.7946777</ele>
        <time>2014-07-22T05:11:02Z</time>
      </trkpt>
      <trkpt lat="43.2462" lon="3.29449">
        <ele>1413.7558594</ele>
        <time>2014-07-22T05:11:06Z</time>
      </trkpt>
      <trkpt lat="43.24613" lon="3.29437">
        <ele>1415.197998</ele>
        <time>2014-07-22T05:11:11Z</time>
      </trkpt>
      <trkpt lat="43.24606" lon="3.29408">
        <ele>1410.8720703</ele>
        <time>2014-07-22T05:11:21Z</time>
      </trkpt>
      <trkpt lat="43.24604" lon="3.29407">
        <ele>1415.197998</ele>
        <time>2014-07-22T05:11:22Z</time>
      </trkpt>
      <trkpt lat="43.24583" lon="3.29365">
        <ele>1412.3139648</ele>
        <time>2014-07-22T05:11:38Z</time>
      </trkpt>
      <trkpt lat="43.24582" lon="3.29362">
        <ele>1416.1591797</ele>
        <time>2014-07-22T05:11:39Z</time>
      </trkpt>
      <trkpt lat="43.24572" lon="3.2935">
        <ele>1414.7172852</ele>
        <time>2014-07-22T05:11:44Z</time>
      </trkpt>
      <trkpt lat="43.24568" lon="3.29346">
        <ele>1415.6787109</ele>
        <time>2014-07-22T05:11:46Z</time>
      </trkpt>
      <trkpt lat="43.24566" lon="3.29344">
        <ele>1412.3139648</ele>
        <time>2014-07-22T05:11:47Z</time>
      </trkpt>
      <trkpt lat="43.24564" lon="3.29342">
        <ele>1413.2753906</ele>
        <time>2014-07-22T05:11:48Z</time>
      </trkpt>
      <trkpt lat="43.24556" lon="3.29319">
        <ele>1417.1206055</ele>
        <time>2014-07-22T05:11:56Z</time>
      </trkpt>
      <trkpt lat="43.24549" lon="3.29313">
        <ele>1415.197998</ele>
        <time>2014-07-22T05:11:59Z</time>
      </trkpt>
      <trkpt lat="43.24544" lon="3.29308">
        <ele>1416.1591797</ele>
        <time>2014-07-22T05:12:01Z</time>
      </trkpt>
      <trkpt lat="43.2454" lon="3.29297">
        <ele>1414.7172852</ele>
        <time>2014-07-22T05:12:05Z</time>
      </trkpt>
      <trkpt lat="43.24536" lon="3.29288">
        <ele>1416.6398926</ele>
        <time>2014-07-22T05:12:09Z</time>
      </trkpt>
      <trkpt lat="43.24529" lon="3.29268">
        <ele>1413.7558594</ele>
        <time>2014-07-22T05:12:17Z</time>
      </trkpt>
      <trkpt lat="43.24525" lon="3.29263">
        <ele>1417.1206055</ele>
        <time>2014-07-22T05:12:19Z</time>
      </trkpt>
      <trkpt lat="43.24524" lon="3.2926">
        <ele>1414.7172852</ele>
        <time>2014-07-22T05:12:20Z</time>
      </trkpt>
      <trkpt lat="43.24516" lon="3.29237">
        <ele>1417.1206055</ele>
        <time>2014-07-22T05:12:29Z</time>
      </trkpt>
      <trkpt lat="43.24514" lon="3.29235">
        <ele>1413.7558594</ele>
        <time>2014-07-22T05:12:30Z</time>
      </trkpt>
      <trkpt lat="43.24512" lon="3.29232">
        <ele>1415.197998</ele>
        <time>2014-07-22T05:12:31Z</time>
      </trkpt>
      <trkpt lat="43.24502" lon="3.29209">
        <ele>1415.6787109</ele>
        <time>2014-07-22T05:12:40Z</time>
      </trkpt>
      <trkpt lat="43.24497" lon="3.29196">
        <ele>1412.3139648</ele>
        <time>2014-07-22T05:12:45Z</time>
      </trkpt>
      <trkpt lat="43.24494" lon="3.29194">
        <ele>1412.7946777</ele>
        <time>2014-07-22T05:12:46Z</time>
      </trkpt>
      <trkpt lat="43.24491" lon="3.29186">
        <ele>1416.6398926</ele>
        <time>2014-07-22T05:12:49Z</time>
      </trkpt>
      <trkpt lat="43.24488" lon="3.29181">
        <ele>1412.3139648</ele>
        <time>2014-07-22T05:12:51Z</time>
      </trkpt>
      <trkpt lat="43.24484" lon="3.29174">
        <ele>1416.1591797</ele>
        <time>2014-07-22T05:12:54Z</time>
      </trkpt>
      <trkpt lat="43.24477" lon="3.29162">
        <ele>1412.7946777</ele>
        <time>2014-07-22T05:12:59Z</time>
      </trkpt>
      <trkpt lat="43.24474" lon="3.2916">
        <ele>1413.2753906</ele>
        <time>2014-07-22T05:13:00Z</time>
      </trkpt>
      <trkpt lat="43.24463" lon="3.29146">
        <ele>1413.7558594</ele>
        <time>2014-07-22T05:13:06Z</time>
      </trkpt>
      <trkpt lat="43.24455" lon="3.29131">
        <ele>1411.3527832</ele>
        <time>2014-07-22T05:13:12Z</time>
      </trkpt>
      <trkpt lat="43.24454" lon="3.29129">
        <ele>1416.1591797</ele>
        <time>2014-07-22T05:13:13Z</time>
      </trkpt>
      <trkpt lat="43.24439" lon="3.29087">
        <ele>1413.7558594</ele>
        <time>2014-07-22T05:13:29Z</time>
      </trkpt>
      <trkpt lat="43.24432" lon="3.29069">
        <ele>1417.6010742</ele>
        <time>2014-07-22T05:13:36Z</time>
      </trkpt>
      <trkpt lat="43.24429" lon="3.29065">
        <ele>1413.2753906</ele>
        <time>2014-07-22T05:13:38Z</time>
      </trkpt>
      <trkpt lat="43.24427" lon="3.29062">
        <ele>1416.6398926</ele>
        <time>2014-07-22T05:13:39Z</time>
      </trkpt>
      <trkpt lat="43.24424" lon="3.29057">
        <ele>1412.7946777</ele>
        <time>2014-07-22T05:13:41Z</time>
      </trkpt>
      <trkpt lat="43.24424" lon="3.29049">
        <ele>1418.5625</ele>
        <time>2014-07-22T05:13:44Z</time>
      </trkpt>
      <trkpt lat="43.24422" lon="3.29046">
        <ele>1414.7172852</ele>
        <time>2014-07-22T05:13:45Z</time>
      </trkpt>
      <trkpt lat="43.24411" lon="3.29021">
        <ele>1419.0432129</ele>
        <time>2014-07-22T05:13:55Z</time>
      </trkpt>
      <trkpt lat="43.24409" lon="3.29019">
        <ele>1413.7558594</ele>
        <time>2014-07-22T05:13:56Z</time>
      </trkpt>
      <trkpt lat="43.244" lon="3.29001">
        <ele>1415.6787109</ele>
        <time>2014-07-22T05:14:03Z</time>
      </trkpt>
      <trkpt lat="43.24391" lon="3.28986">
        <ele>1413.2753906</ele>
        <time>2014-07-22T05:14:09Z</time>
      </trkpt>
      <trkpt lat="43.24377" lon="3.28954">
        <ele>1412.7946777</ele>
        <time>2014-07-22T05:14:21Z</time>
      </trkpt>
      <trkpt lat="43.24374" lon="3.28949">
        <ele>1416.6398926</ele>
        <time>2014-07-22T05:14:23Z</time>
      </trkpt>
      <trkpt lat="43.24369" lon="3.2894">
        <ele>1419.5239258</ele>
        <time>2014-07-22T05:14:26Z</time>
      </trkpt>
      <trkpt lat="43.24366" lon="3.2893">
        <ele>1418.5625</ele>
        <time>2014-07-22T05:14:30Z</time>
      </trkpt>
      <trkpt lat="43.24357" lon="3.28907">
        <ele>1415.197998</ele>
        <time>2014-07-22T05:14:39Z</time>
      </trkpt>
      <trkpt lat="43.24355" lon="3.28899">
        <ele>1417.1206055</ele>
        <time>2014-07-22T05:14:42Z</time>
      </trkpt>
      <trkpt lat="43.24353" lon="3.28895">
        <ele>1414.2365723</ele>
        <time>2014-07-22T05:14:44Z</time>
      </trkpt>
      <trkpt lat="43.24342" lon="3.28863">
        <ele>1415.6787109</ele>
        <time>2014-07-22T05:14:56Z</time>
      </trkpt>
      <trkpt lat="43.24335" lon="3.28853">
        <ele>1416.1591797</ele>
        <time>2014-07-22T05:15:00Z</time>
      </trkpt>
      <trkpt lat="43.24334" lon="3.28848">
        <ele>1415.197998</ele>
        <time>2014-07-22T05:15:02Z</time>
      </trkpt>
      <trkpt lat="43.24331" lon="3.28844">
        <ele>1416.6398926</ele>
        <time>2014-07-22T05:15:04Z</time>
      </trkpt>
      <trkpt lat="43.24318" lon="3.28809">
        <ele>1415.197998</ele>
        <time>2014-07-22T05:15:18Z</time>
      </trkpt>
      <trkpt lat="43.2431" lon="3.28784">
        <ele>1416.6398926</ele>
        <time>2014-07-22T05:15:27Z</time>
      </trkpt>
      <trkpt lat="43.24295" lon="3.28755">
        <ele>1417.1206055</ele>
        <time>2014-07-22T05:15:38Z</time>
      </trkpt>
      <trkpt lat="43.24292" lon="3.28746">
        <ele>1415.197998</ele>
        <time>2014-07-22T05:15:41Z</time>
      </trkpt>
      <trkpt lat="43.24281" lon="3.28719">
        <ele>1413.2753906</ele>
        <time>2014-07-22T05:15:51Z</time>
      </trkpt>
      <trkpt lat="43.24278" lon="3.28712">
        <ele>1418.0817871</ele>
        <time>2014-07-22T05:15:54Z</time>
      </trkpt>
      <trkpt lat="43.24279" lon="3.28709">
        <ele>1417.1206055</ele>
        <time>2014-07-22T05:15:55Z</time>
      </trkpt>
      <trkpt lat="43.24284" lon="3.28694">
        <ele>1421.4465332</ele>
        <time>2014-07-22T05:15:59Z</time>
      </trkpt>
      <trkpt lat="43.24283" lon="3.28693">
        <ele>1417.1206055</ele>
        <time>2014-07-22T05:16:00Z</time>
      </trkpt>
      <trkpt lat="43.2428" lon="3.28689">
        <ele>1416.1591797</ele>
        <time>2014-07-22T05:16:02Z</time>
      </trkpt>
      <trkpt lat="43.24275" lon="3.28683">
        <ele>1414.2365723</ele>
        <time>2014-07-22T05:16:05Z</time>
      </trkpt>
      <trkpt lat="43.24269" lon="3.28676">
        <ele>1414.7172852</ele>
        <time>2014-07-22T05:16:08Z</time>
      </trkpt>
      <trkpt lat="43.24267" lon="3.28673">
        <ele>1414.7172852</ele>
        <time>2014-07-22T05:16:09Z</time>
      </trkpt>
      <trkpt lat="43.24265" lon="3.28664">
        <ele>1416.1591797</ele>
        <time>2014-07-22T05:16:14Z</time>
      </trkpt>
      <trkpt lat="43.24262" lon="3.28653">
        <ele>1420.0046387</ele>
        <time>2014-07-22T05:16:17Z</time>
      </trkpt>
      <trkpt lat="43.24261" lon="3.2865">
        <ele>1415.6787109</ele>
        <time>2014-07-22T05:16:18Z</time>
      </trkpt>
      <trkpt lat="43.24257" lon="3.28641">
        <ele>1420.0046387</ele>
        <time>2014-07-22T05:16:21Z</time>
      </trkpt>
      <trkpt lat="43.24256" lon="3.28637">
        <ele>1417.1206055</ele>
        <time>2014-07-22T05:16:22Z</time>
      </trkpt>
      <trkpt lat="43.24245" lon="3.28615">
        <ele>1413.7558594</ele>
        <time>2014-07-22T05:16:31Z</time>
      </trkpt>
      <trkpt lat="43.24233" lon="3.28587">
        <ele>1416.6398926</ele>
        <time>2014-07-22T05:16:41Z</time>
      </trkpt>
      <trkpt lat="43.24213" lon="3.28555">
        <ele>1417.6010742</ele>
        <time>2014-07-22T05:16:54Z</time>
      </trkpt>
      <trkpt lat="43.24205" lon="3.28534">
        <ele>1418.0817871</ele>
        <time>2014-07-22T05:17:03Z</time>
      </trkpt>
      <trkpt lat="43.24201" lon="3.28527">
        <ele>1414.2365723</ele>
        <time>2014-07-22T05:17:06Z</time>
      </trkpt>
      <trkpt lat="43.242" lon="3.28524">
        <ele>1419.5239258</ele>
        <time>2014-07-22T05:17:07Z</time>
      </trkpt>
      <trkpt lat="43.24196" lon="3.28514">
        <ele>1418.5625</ele>
        <time>2014-07-22T05:17:10Z</time>
      </trkpt>
      <trkpt lat="43.24194" lon="3.28509">
        <ele>1420.4853516</ele>
        <time>2014-07-22T05:17:12Z</time>
      </trkpt>
      <trkpt lat="43.24193" lon="3.28506">
        <ele>1416.6398926</ele>
        <time>2014-07-22T05:17:13Z</time>
      </trkpt>
      <trkpt lat="43.2419" lon="3.28499">
        <ele>1414.7172852</ele>
        <time>2014-07-22T05:17:16Z</time>
      </trkpt>
      <trkpt lat="43.24188" lon="3.28489">
        <ele>1413.7558594</ele>
        <time>2014-07-22T05:17:20Z</time>
      </trkpt>
      <trkpt lat="43.24187" lon="3.28483">
        <ele>1414.7172852</ele>
        <time>2014-07-22T05:17:22Z</time>
      </trkpt>
      <trkpt lat="43.24176" lon="3.28446">
        <ele>1416.1591797</ele>
        <time>2014-07-22T05:17:36Z</time>
      </trkpt>
      <trkpt lat="43.24174" lon="3.28441">
        <ele>1414.7172852</ele>
        <time>2014-07-22T05:17:38Z</time>
      </trkpt>
      <trkpt lat="43.24171" lon="3.28436">
        <ele>1415.6787109</ele>
        <time>2014-07-22T05:17:40Z</time>
      </trkpt>
      <trkpt lat="43.24158" lon="3.28401">
        <ele>1416.1591797</ele>
        <time>2014-07-22T05:17:54Z</time>
      </trkpt>
      <trkpt lat="43.24142" lon="3.28367">
        <ele>1417.1206055</ele>
        <time>2014-07-22T05:18:07Z</time>
      </trkpt>
      <trkpt lat="43.2414" lon="3.28365">
        <ele>1411.8334961</ele>
        <time>2014-07-22T05:18:08Z</time>
      </trkpt>
      <trkpt lat="43.24138" lon="3.28362">
        <ele>1413.2753906</ele>
        <time>2014-07-22T05:18:09Z</time>
      </trkpt>
      <trkpt lat="43.24136" lon="3.28353">
        <ele>1417.1206055</ele>
        <time>2014-07-22T05:18:12Z</time>
      </trkpt>
      <trkpt lat="43.24129" lon="3.28333">
        <ele>1417.6010742</ele>
        <time>2014-07-22T05:18:20Z</time>
      </trkpt>
      <trkpt lat="43.24124" lon="3.2832">
        <ele>1413.2753906</ele>
        <time>2014-07-22T05:18:25Z</time>
      </trkpt>
      <trkpt lat="43.24123" lon="3.28318">
        <ele>1413.7558594</ele>
        <time>2014-07-22T05:18:26Z</time>
      </trkpt>
      <trkpt lat="43.24116" lon="3.28298">
        <ele>1417.1206055</ele>
        <time>2014-07-22T05:18:34Z</time>
      </trkpt>
      <trkpt lat="43.24114" lon="3.28296">
        <ele>1413.7558594</ele>
        <time>2014-07-22T05:18:35Z</time>
      </trkpt>
      <trkpt lat="43.24112" lon="3.28293">
        <ele>1416.6398926</ele>
        <time>2014-07-22T05:18:36Z</time>
      </trkpt>
      <trkpt lat="43.24111" lon="3.28291">
        <ele>1412.7946777</ele>
        <time>2014-07-22T05:18:37Z</time>
      </trkpt>
      <trkpt lat="43.2411" lon="3.28287">
        <ele>1418.0817871</ele>
        <time>2014-07-22T05:18:39Z</time>
      </trkpt>
      <trkpt lat="43.24111" lon="3.28284">
        <ele>1418.0817871</ele>
        <time>2014-07-22T05:18:40Z</time>
      </trkpt>
      <trkpt lat="43.24111" lon="3.28278">
        <ele>1414.7172852</ele>
        <time>2014-07-22T05:18:42Z</time>
      </trkpt>
      <trkpt lat="43.24097" lon="3.28251">
        <ele>1417.1206055</ele>
        <time>2014-07-22T05:18:53Z</time>
      </trkpt>
      <trkpt lat="43.2409" lon="3.28229">
        <ele>1414.7172852</ele>
        <time>2014-07-22T05:19:01Z</time>
      </trkpt>
      <trkpt lat="43.24086" lon="3.28221">
        <ele>1419.0432129</ele>
        <time>2014-07-22T05:19:04Z</time>
      </trkpt>
      <trkpt lat="43.24085" lon="3.28218">
        <ele>1418.5625</ele>
        <time>2014-07-22T05:19:05Z</time>
      </trkpt>
      <trkpt lat="43.2408" lon="3.28212">
        <ele>1417.6010742</ele>
        <time>2014-07-22T05:19:07Z</time>
      </trkpt>
      <trkpt lat="43.24079" lon="3.28205">
        <ele>1416.1591797</ele>
        <time>2014-07-22T05:19:10Z</time>
      </trkpt>
      <trkpt lat="43.24073" lon="3.28198">
        <ele>1413.2753906</ele>
        <time>2014-07-22T05:19:13Z</time>
      </trkpt>
      <trkpt lat="43.2407" lon="3.28195">
        <ele>1418.5625</ele>
        <time>2014-07-22T05:19:14Z</time>
      </trkpt>
      <trkpt lat="43.24066" lon="3.28187">
        <ele>1412.7946777</ele>
        <time>2014-07-22T05:19:17Z</time>
      </trkpt>
      <trkpt lat="43.2406" lon="3.28182">
        <ele>1418.0817871</ele>
        <time>2014-07-22T05:19:19Z</time>
      </trkpt>
      <trkpt lat="43.24059" lon="3.28179">
        <ele>1416.6398926</ele>
        <time>2014-07-22T05:19:20Z</time>
      </trkpt>
      <trkpt lat="43.24056" lon="3.2817">
        <ele>1412.3139648</ele>
        <time>2014-07-22T05:19:23Z</time>
      </trkpt>
      <trkpt lat="43.24056" lon="3.28167">
        <ele>1418.5625</ele>
        <time>2014-07-22T05:19:24Z</time>
      </trkpt>
      <trkpt lat="43.24053" lon="3.28159">
        <ele>1414.7172852</ele>
        <time>2014-07-22T05:19:27Z</time>
      </trkpt>
      <trkpt lat="43.24052" lon="3.28156">
        <ele>1413.7558594</ele>
        <time>2014-07-22T05:19:28Z</time>
      </trkpt>
      <trkpt lat="43.24048" lon="3.28151">
        <ele>1415.197998</ele>
        <time>2014-07-22T05:19:31Z</time>
      </trkpt>
      <trkpt lat="43.24047" lon="3.28149">
        <ele>1415.6787109</ele>
        <time>2014-07-22T05:19:32Z</time>
      </trkpt>
      <trkpt lat="43.24048" lon="3.28143">
        <ele>1415.197998</ele>
        <time>2014-07-22T05:19:56Z</time>
      </trkpt>
      <trkpt lat="43.24048" lon="3.28144">
        <ele>1413.2753906</ele>
        <time>2014-07-22T05:20:11Z</time>
      </trkpt>
      <trkpt lat="43.24049" lon="3.28144">
        <ele>1418.0817871</ele>
        <time>2014-07-22T05:20:12Z</time>
      </trkpt>
      <trkpt lat="43.24049" lon="3.28144">
        <ele>1416.1591797</ele>
        <time>2014-07-22T05:20:13Z</time>
      </trkpt>
      <trkpt lat="43.24057" lon="3.28136">
        <ele>1419.0432129</ele>
        <time>2014-07-22T05:20:19Z</time>
      </trkpt>
      <trkpt lat="43.24059" lon="3.28135">
        <ele>1414.2365723</ele>
        <time>2014-07-22T05:20:20Z</time>
      </trkpt>
      <trkpt lat="43.24062" lon="3.28132">
        <ele>1414.2365723</ele>
        <time>2014-07-22T05:20:22Z</time>
      </trkpt>
      <trkpt lat="43.24065" lon="3.2813">
        <ele>1415.197998</ele>
        <time>2014-07-22T05:20:24Z</time>
      </trkpt>
      <trkpt lat="43.24074" lon="3.28123">
        <ele>1416.6398926</ele>
        <time>2014-07-22T05:20:28Z</time>
      </trkpt>
      <trkpt lat="43.24078" lon="3.2812">
        <ele>1415.197998</ele>
        <time>2014-07-22T05:20:30Z</time>
      </trkpt>
      <trkpt lat="43.24079" lon="3.2812">
        <ele>1415.6787109</ele>
        <time>2014-07-22T05:20:31Z</time>
      </trkpt>
      <trkpt lat="43.24082" lon="3.28121">
        <ele>1417.6010742</ele>
        <time>2014-07-22T05:20:33Z</time>
      </trkpt>
      <trkpt lat="43.24088" lon="3.28138">
        <ele>1417.6010742</ele>
        <time>2014-07-22T05:20:39Z</time>
      </trkpt>
      <trkpt lat="43.24089" lon="3.2814">
        <ele>1416.1591797</ele>
        <time>2014-07-22T05:20:40Z</time>
      </trkpt>
      <trkpt lat="43.24092" lon="3.28144">
        <ele>1413.2753906</ele>
        <time>2014-07-22T05:20:42Z</time>
      </trkpt>
      <trkpt lat="43.24094" lon="3.28147">
        <ele>1413.7558594</ele>
        <time>2014-07-22T05:20:43Z</time>
      </trkpt>
      <trkpt lat="43.24101" lon="3.28156">
        <ele>1414.7172852</ele>
        <time>2014-07-22T05:20:47Z</time>
      </trkpt>
      <trkpt lat="43.2411" lon="3.28178">
        <ele>1415.6787109</ele>
        <time>2014-07-22T05:20:56Z</time>
      </trkpt>
      <trkpt lat="43.24113" lon="3.28194">
        <ele>1414.2365723</ele>
        <time>2014-07-22T05:21:02Z</time>
      </trkpt>
      <trkpt lat="43.24126" lon="3.28216">
        <ele>1414.2365723</ele>
        <time>2014-07-22T05:21:14Z</time>
      </trkpt>
      <trkpt lat="43.24129" lon="3.2822">
        <ele>1417.6010742</ele>
        <time>2014-07-22T05:21:16Z</time>
      </trkpt>
      <trkpt lat="43.24129" lon="3.28222">
        <ele>1417.1206055</ele>
        <time>2014-07-22T05:21:17Z</time>
      </trkpt>
      <trkpt lat="43.24136" lon="3.28234">
        <ele>1420.0046387</ele>
        <time>2014-07-22T05:21:22Z</time>
      </trkpt>
      <trkpt lat="43.24136" lon="3.28236">
        <ele>1416.6398926</ele>
        <time>2014-07-22T05:21:23Z</time>
      </trkpt>
      <trkpt lat="43.24138" lon="3.28241">
        <ele>1420.0046387</ele>
        <time>2014-07-22T05:21:26Z</time>
      </trkpt>
      <trkpt lat="43.24138" lon="3.28243">
        <ele>1416.6398926</ele>
        <time>2014-07-22T05:21:27Z</time>
      </trkpt>
      <trkpt lat="43.24139" lon="3.28245">
        <ele>1414.7172852</ele>
        <time>2014-07-22T05:21:28Z</time>
      </trkpt>
      <trkpt lat="43.24138" lon="3.28248">
        <ele>1411.3527832</ele>
        <time>2014-07-22T05:21:30Z</time>
      </trkpt>
      <trkpt lat="43.24138" lon="3.28249">
        <ele>1415.197998</ele>
        <time>2014-07-22T05:21:31Z</time>
      </trkpt>
      <trkpt lat="43.24153" lon="3.28275">
        <ele>1412.7946777</ele>
        <time>2014-07-22T05:21:38Z</time>
      </trkpt>
      <trkpt lat="43.24155" lon="3.28276">
        <ele>1416.1591797</ele>
        <time>2014-07-22T05:21:39Z</time>
      </trkpt>
      <trkpt lat="43.24165" lon="3.28288">
        <ele>1411.3527832</ele>
        <time>2014-07-22T05:21:44Z</time>
      </trkpt>
      <trkpt lat="43.24173" lon="3.28301">
        <ele>1415.197998</ele>
        <time>2014-07-22T05:21:48Z</time>
      </trkpt>
      <trkpt lat="43.24181" lon="3.28323">
        <ele>1414.2365723</ele>
        <time>2014-07-22T05:21:56Z</time>
      </trkpt>
      <trkpt lat="43.24194" lon="3.28355">
        <ele>1414.7172852</ele>
        <time>2014-07-22T05:22:10Z</time>
      </trkpt>
      <trkpt lat="43.24204" lon="3.28371">
        <ele>1418.0817871</ele>
        <time>2014-07-22T05:22:16Z</time>
      </trkpt>
      <trkpt lat="43.24206" lon="3.28375">
        <ele>1414.2365723</ele>
        <time>2014-07-22T05:22:18Z</time>
      </trkpt>
      <trkpt lat="43.24213" lon="3.28391">
        <ele>1417.1206055</ele>
        <time>2014-07-22T05:22:24Z</time>
      </trkpt>
      <trkpt lat="43.24215" lon="3.28394">
        <ele>1413.7558594</ele>
        <time>2014-07-22T05:22:25Z</time>
      </trkpt>
      <trkpt lat="43.24215" lon="3.28396">
        <ele>1414.7172852</ele>
        <time>2014-07-22T05:22:26Z</time>
      </trkpt>
      <trkpt lat="43.24216" lon="3.28402">
        <ele>1416.1591797</ele>
        <time>2014-07-22T05:22:28Z</time>
      </trkpt>
      <trkpt lat="43.24219" lon="3.28406">
        <ele>1414.2365723</ele>
        <time>2014-07-22T05:22:30Z</time>
      </trkpt>
      <trkpt lat="43.24232" lon="3.28439">
        <ele>1417.1206055</ele>
        <time>2014-07-22T05:22:43Z</time>
      </trkpt>
      <trkpt lat="43.24233" lon="3.28442">
        <ele>1413.2753906</ele>
        <time>2014-07-22T05:22:44Z</time>
      </trkpt>
      <trkpt lat="43.24234" lon="3.28444">
        <ele>1413.7558594</ele>
        <time>2014-07-22T05:22:45Z</time>
      </trkpt>
      <trkpt lat="43.24237" lon="3.28448">
        <ele>1417.1206055</ele>
        <time>2014-07-22T05:22:47Z</time>
      </trkpt>
      <trkpt lat="43.24243" lon="3.28459">
        <ele>1416.1591797</ele>
        <time>2014-07-22T05:22:52Z</time>
      </trkpt>
      <trkpt lat="43.2425" lon="3.28468">
        <ele>1412.3139648</ele>
        <time>2014-07-22T05:22:56Z</time>
      </trkpt>
      <trkpt lat="43.24258" lon="3.28484">
        <ele>1415.6787109</ele>
        <time>2014-07-22T05:23:02Z</time>
      </trkpt>
      <trkpt lat="43.24259" lon="3.28487">
        <ele>1416.1591797</ele>
        <time>2014-07-22T05:23:03Z</time>
      </trkpt>
      <trkpt lat="43.24257" lon="3.28497">
        <ele>1413.7558594</ele>
        <time>2014-07-22T05:23:05Z</time>
      </trkpt>
      <trkpt lat="43.24264" lon="3.28514">
        <ele>1417.6010742</ele>
        <time>2014-07-22T05:23:11Z</time>
      </trkpt>
      <trkpt lat="43.24266" lon="3.28521">
        <ele>1409.4301758</ele>
        <time>2014-07-22T05:23:14Z</time>
      </trkpt>
      <trkpt lat="43.24267" lon="3.28523">
        <ele>1415.197998</ele>
        <time>2014-07-22T05:23:15Z</time>
      </trkpt>
      <trkpt lat="43.2427" lon="3.28528">
        <ele>1407.0268555</ele>
        <time>2014-07-22T05:23:17Z</time>
      </trkpt>
      <trkpt lat="43.24272" lon="3.28531">
        <ele>1415.197998</ele>
        <time>2014-07-22T05:23:18Z</time>
      </trkpt>
      <trkpt lat="43.24273" lon="3.28533">
        <ele>1414.7172852</ele>
        <time>2014-07-22T05:23:19Z</time>
      </trkpt>
      <trkpt lat="43.24275" lon="3.28537">
        <ele>1418.0817871</ele>
        <time>2014-07-22T05:23:21Z</time>
      </trkpt>
      <trkpt lat="43.2428" lon="3.28542">
        <ele>1414.7172852</ele>
        <time>2014-07-22T05:23:24Z</time>
      </trkpt>
      <trkpt lat="43.2429" lon="3.2857">
        <ele>1413.2753906</ele>
        <time>2014-07-22T05:23:36Z</time>
      </trkpt>
      <trkpt lat="43.24298" lon="3.28592">
        <ele>1415.197998</ele>
        <time>2014-07-22T05:23:44Z</time>
      </trkpt>
      <trkpt lat="43.24313" lon="3.28624">
        <ele>1416.6398926</ele>
        <time>2014-07-22T05:23:57Z</time>
      </trkpt>
      <trkpt lat="43.24326" lon="3.2865">
        <ele>1413.2753906</ele>
        <time>2014-07-22T05:24:07Z</time>
      </trkpt>
      <trkpt lat="43.24326" lon="3.28653">
        <ele>1413.7558594</ele>
        <time>2014-07-22T05:24:08Z</time>
      </trkpt>
      <trkpt lat="43.24332" lon="3.28661">
        <ele>1418.0817871</ele>
        <time>2014-07-22T05:24:10Z</time>
      </trkpt>
      <trkpt lat="43.24333" lon="3.28663">
        <ele>1414.2365723</ele>
        <time>2014-07-22T05:24:11Z</time>
      </trkpt>
      <trkpt lat="43.24334" lon="3.28665">
        <ele>1415.6787109</ele>
        <time>2014-07-22T05:24:12Z</time>
      </trkpt>
      <trkpt lat="43.24336" lon="3.28669">
        <ele>1415.197998</ele>
        <time>2014-07-22T05:24:14Z</time>
      </trkpt>
      <trkpt lat="43.24342" lon="3.28687">
        <ele>1416.6398926</ele>
        <time>2014-07-22T05:24:21Z</time>
      </trkpt>
      <trkpt lat="43.24343" lon="3.2869">
        <ele>1413.2753906</ele>
        <time>2014-07-22T05:24:22Z</time>
      </trkpt>
      <trkpt lat="43.24345" lon="3.28693">
        <ele>1413.2753906</ele>
        <time>2014-07-22T05:24:23Z</time>
      </trkpt>
      <trkpt lat="43.24346" lon="3.28702">
        <ele>1415.197998</ele>
        <time>2014-07-22T05:24:26Z</time>
      </trkpt>
      <trkpt lat="43.24352" lon="3.28714">
        <ele>1411.3527832</ele>
        <time>2014-07-22T05:24:31Z</time>
      </trkpt>
      <trkpt lat="43.24354" lon="3.28724">
        <ele>1413.7558594</ele>
        <time>2014-07-22T05:24:35Z</time>
      </trkpt>
      <trkpt lat="43.2437" lon="3.2875">
        <ele>1414.7172852</ele>
        <time>2014-07-22T05:24:48Z</time>
      </trkpt>
      <trkpt lat="43.24377" lon="3.28777">
        <ele>1414.7172852</ele>
        <time>2014-07-22T05:24:58Z</time>
      </trkpt>
      <trkpt lat="43.24382" lon="3.28789">
        <ele>1414.2365723</ele>
        <time>2014-07-22T05:25:02Z</time>
      </trkpt>
      <trkpt lat="43.24398" lon="3.28825">
        <ele>1413.7558594</ele>
        <time>2014-07-22T05:25:15Z</time>
      </trkpt>
      <trkpt lat="43.24403" lon="3.28837">
        <ele>1417.6010742</ele>
        <time>2014-07-22T05:25:19Z</time>
      </trkpt>
      <trkpt lat="43.24405" lon="3.2884">
        <ele>1417.1206055</ele>
        <time>2014-07-22T05:25:20Z</time>
      </trkpt>
      <trkpt lat="43.24409" lon="3.28849">
        <ele>1415.6787109</ele>
        <time>2014-07-22T05:25:24Z</time>
      </trkpt>
      <trkpt lat="43.24414" lon="3.28868">
        <ele>1414.2365723</ele>
        <time>2014-07-22T05:25:31Z</time>
      </trkpt>
      <trkpt lat="43.24424" lon="3.28887">
        <ele>1417.1206055</ele>
        <time>2014-07-22T05:25:39Z</time>
      </trkpt>
      <trkpt lat="43.24427" lon="3.28905">
        <ele>1415.197998</ele>
        <time>2014-07-22T05:25:46Z</time>
      </trkpt>
      <trkpt lat="43.24438" lon="3.28923">
        <ele>1417.1206055</ele>
        <time>2014-07-22T05:25:53Z</time>
      </trkpt>
      <trkpt lat="43.24441" lon="3.28927">
        <ele>1415.197998</ele>
        <time>2014-07-22T05:25:55Z</time>
      </trkpt>
      <trkpt lat="43.24454" lon="3.28956">
        <ele>1416.6398926</ele>
        <time>2014-07-22T05:26:07Z</time>
      </trkpt>
      <trkpt lat="43.24459" lon="3.28968">
        <ele>1415.6787109</ele>
        <time>2014-07-22T05:26:11Z</time>
      </trkpt>
      <trkpt lat="43.24462" lon="3.28976">
        <ele>1417.1206055</ele>
        <time>2014-07-22T05:26:14Z</time>
      </trkpt>
      <trkpt lat="43.2447" lon="3.28993">
        <ele>1412.3139648</ele>
        <time>2014-07-22T05:26:21Z</time>
      </trkpt>
      <trkpt lat="43.24471" lon="3.28995">
        <ele>1415.6787109</ele>
        <time>2014-07-22T05:26:22Z</time>
      </trkpt>
      <trkpt lat="43.24473" lon="3.29001">
        <ele>1411.3527832</ele>
        <time>2014-07-22T05:26:24Z</time>
      </trkpt>
      <trkpt lat="43.24474" lon="3.29004">
        <ele>1411.8334961</ele>
        <time>2014-07-22T05:26:25Z</time>
      </trkpt>
      <trkpt lat="43.24475" lon="3.29009">
        <ele>1416.1591797</ele>
        <time>2014-07-22T05:26:27Z</time>
      </trkpt>
      <trkpt lat="43.24476" lon="3.29012">
        <ele>1413.2753906</ele>
        <time>2014-07-22T05:26:28Z</time>
      </trkpt>
      <trkpt lat="43.24482" lon="3.2903">
        <ele>1414.7172852</ele>
        <time>2014-07-22T05:26:34Z</time>
      </trkpt>
      <trkpt lat="43.24488" lon="3.29042">
        <ele>1415.197998</ele>
        <time>2014-07-22T05:26:39Z</time>
      </trkpt>
      <trkpt lat="43.24491" lon="3.29048">
        <ele>1415.6787109</ele>
        <time>2014-07-22T05:26:41Z</time>
      </trkpt>
      <trkpt lat="43.24496" lon="3.29056">
        <ele>1416.6398926</ele>
        <time>2014-07-22T05:26:45Z</time>
      </trkpt>
      <trkpt lat="43.24498" lon="3.29063">
        <ele>1412.7946777</ele>
        <time>2014-07-22T05:26:47Z</time>
      </trkpt>
      <trkpt lat="43.245" lon="3.29069">
        <ele>1413.2753906</ele>
        <time>2014-07-22T05:26:49Z</time>
      </trkpt>
      <trkpt lat="43.24509" lon="3.29093">
        <ele>1415.197998</ele>
        <time>2014-07-22T05:26:59Z</time>
      </trkpt>
      <trkpt lat="43.24527" lon="3.2913">
        <ele>1417.6010742</ele>
        <time>2014-07-22T05:27:13Z</time>
      </trkpt>
      <trkpt lat="43.24538" lon="3.29148">
        <ele>1417.1206055</ele>
        <time>2014-07-22T05:27:20Z</time>
      </trkpt>
      <trkpt lat="43.24541" lon="3.29154">
        <ele>1415.6787109</ele>
        <time>2014-07-22T05:27:23Z</time>
      </trkpt>
      <trkpt lat="43.24543" lon="3.29157">
        <ele>1417.6010742</ele>
        <time>2014-07-22T05:27:25Z</time>
      </trkpt>
      <trkpt lat="43.24554" lon="3.29172">
        <ele>1416.1591797</ele>
        <time>2014-07-22T05:27:34Z</time>
      </trkpt>
      <trkpt lat="43.24558" lon="3.29178">
        <ele>1414.2365723</ele>
        <time>2014-07-22T05:27:37Z</time>
      </trkpt>
      <trkpt lat="43.24561" lon="3.29182">
        <ele>1416.6398926</ele>
        <time>2014-07-22T05:27:39Z</time>
      </trkpt>
      <trkpt lat="43.24564" lon="3.29185">
        <ele>1415.6787109</ele>
        <time>2014-07-22T05:27:41Z</time>
      </trkpt>
      <trkpt lat="43.24564" lon="3.29192">
        <ele>1413.7558594</ele>
        <time>2014-07-22T05:27:42Z</time>
      </trkpt>
      <trkpt lat="43.24566" lon="3.29197">
        <ele>1412.3139648</ele>
        <time>2014-07-22T05:27:44Z</time>
      </trkpt>
      <trkpt lat="43.24566" lon="3.29199">
        <ele>1415.197998</ele>
        <time>2014-07-22T05:27:45Z</time>
      </trkpt>
      <trkpt lat="43.24571" lon="3.29206">
        <ele>1417.6010742</ele>
        <time>2014-07-22T05:27:49Z</time>
      </trkpt>
      <trkpt lat="43.24584" lon="3.2923">
        <ele>1417.1206055</ele>
        <time>2014-07-22T05:28:02Z</time>
      </trkpt>
      <trkpt lat="43.24591" lon="3.2924">
        <ele>1414.2365723</ele>
        <time>2014-07-22T05:28:08Z</time>
      </trkpt>
      <trkpt lat="43.24596" lon="3.29245">
        <ele>1418.5625</ele>
        <time>2014-07-22T05:28:13Z</time>
      </trkpt>
      <trkpt lat="43.24597" lon="3.29246">
        <ele>1416.6398926</ele>
        <time>2014-07-22T05:28:14Z</time>
      </trkpt>
      <trkpt lat="43.24599" lon="3.29254">
        <ele>1411.3527832</ele>
        <time>2014-07-22T05:28:19Z</time>
      </trkpt>
      <trkpt lat="43.24599" lon="3.29255">
        <ele>1418.0817871</ele>
        <time>2014-07-22T05:28:20Z</time>
      </trkpt>
      <trkpt lat="43.24601" lon="3.29256">
        <ele>1417.1206055</ele>
        <time>2014-07-22T05:28:21Z</time>
      </trkpt>
      <trkpt lat="43.24604" lon="3.29258">
        <ele>1413.7558594</ele>
        <time>2014-07-22T05:28:23Z</time>
      </trkpt>
      <trkpt lat="43.24606" lon="3.2926">
        <ele>1414.7172852</ele>
        <time>2014-07-22T05:28:24Z</time>
      </trkpt>
      <trkpt lat="43.24613" lon="3.29264">
        <ele>1415.197998</ele>
        <time>2014-07-22T05:28:26Z</time>
      </trkpt>
      <trkpt lat="43.24616" lon="3.29267">
        <ele>1416.6398926</ele>
        <time>2014-07-22T05:28:27Z</time>
      </trkpt>
      <trkpt lat="43.24617" lon="3.29272">
        <ele>1411.8334961</ele>
        <time>2014-07-22T05:28:29Z</time>
      </trkpt>
      <trkpt lat="43.24618" lon="3.29273">
        <ele>1416.1591797</ele>
        <time>2014-07-22T05:28:30Z</time>
      </trkpt>
      <trkpt lat="43.2462" lon="3.29278">
        <ele>1415.197998</ele>
        <time>2014-07-22T05:28:32Z</time>
      </trkpt>
      <trkpt lat="43.24622" lon="3.29304">
        <ele>1414.7172852</ele>
        <time>2014-07-22T05:28:40Z</time>
      </trkpt>
      <trkpt lat="43.24625" lon="3.29317">
        <ele>1413.2753906</ele>
        <time>2014-07-22T05:28:43Z</time>
      </trkpt>
      <trkpt lat="43.24641" lon="3.29343">
        <ele>1414.7172852</ele>
        <time>2014-07-22T05:28:52Z</time>
      </trkpt>
      <trkpt lat="43.24645" lon="3.29349">
        <ele>1416.1591797</ele>
        <time>2014-07-22T05:28:55Z</time>
      </trkpt>
      <trkpt lat="43.24651" lon="3.2936">
        <ele>1414.2365723</ele>
        <time>2014-07-22T05:28:58Z</time>
      </trkpt>
      <trkpt lat="43.24655" lon="3.29366">
        <ele>1417.6010742</ele>
        <time>2014-07-22T05:29:01Z</time>
      </trkpt>
      <trkpt lat="43.24656" lon="3.29367">
        <ele>1414.2365723</ele>
        <time>2014-07-22T05:29:02Z</time>
      </trkpt>
      <trkpt lat="43.24683" lon="3.29419">
        <ele>1417.6010742</ele>
        <time>2014-07-22T05:29:15Z</time>
      </trkpt>
      <trkpt lat="43.24685" lon="3.29423">
        <ele>1413.2753906</ele>
        <time>2014-07-22T05:29:17Z</time>
      </trkpt>
      <trkpt lat="43.24688" lon="3.29426">
        <ele>1416.6398926</ele>
        <time>2014-07-22T05:29:18Z</time>
      </trkpt>
      <trkpt lat="43.24696" lon="3.29426">
        <ele>1410.8720703</ele>
        <time>2014-07-22T05:29:21Z</time>
      </trkpt>
      <trkpt lat="43.24698" lon="3.29427">
        <ele>1414.7172852</ele>
        <time>2014-07-22T05:29:22Z</time>
      </trkpt>
      <trkpt lat="43.24701" lon="3.29432">
        <ele>1416.6398926</ele>
        <time>2014-07-22T05:29:24Z</time>
      </trkpt>
      <trkpt lat="43.24704" lon="3.29455">
        <ele>1413.2753906</ele>
        <time>2014-07-22T05:29:31Z</time>
      </trkpt>
      <trkpt lat="43.24705" lon="3.29458">
        <ele>1416.6398926</ele>
        <time>2014-07-22T05:29:32Z</time>
      </trkpt>
      <trkpt lat="43.24707" lon="3.2947">
        <ele>1413.2753906</ele>
        <time>2014-07-22T05:29:36Z</time>
      </trkpt>
      <trkpt lat="43.24707" lon="3.29474">
        <ele>1417.1206055</ele>
        <time>2014-07-22T05:29:37Z</time>
      </trkpt>
      <trkpt lat="43.24716" lon="3.29491">
        <ele>1413.7558594</ele>
        <time>2014-07-22T05:29:45Z</time>
      </trkpt>
      <trkpt lat="43.24719" lon="3.295">
        <ele>1417.1206055</ele>
        <time>2014-07-22T05:29:48Z</time>
      </trkpt>
      <trkpt lat="43.24724" lon="3.29513">
        <ele>1416.6398926</ele>
        <time>2014-07-22T05:29:53Z</time>
      </trkpt>
      <trkpt lat="43.24729" lon="3.29524">
        <ele>1415.6787109</ele>
        <time>2014-07-22T05:29:57Z</time>
      </trkpt>
      <trkpt lat="43.24733" lon="3.29528">
        <ele>1416.1591797</ele>
        <time>2014-07-22T05:29:59Z</time>
      </trkpt>
      <trkpt lat="43.24736" lon="3.29532">
        <ele>1416.1591797</ele>
        <time>2014-07-22T05:30:01Z</time>
      </trkpt>
      <trkpt lat="43.24735" lon="3.29534">
        <ele>1413.7558594</ele>
        <time>2014-07-22T05:30:03Z</time>
      </trkpt>
      <trkpt lat="43.24729" lon="3.29539">
        <ele>1417.6010742</ele>
        <time>2014-07-22T05:30:08Z</time>
      </trkpt>
      <trkpt lat="43.24728" lon="3.29549">
        <ele>1414.2365723</ele>
        <time>2014-07-22T05:30:12Z</time>
      </trkpt>
      <trkpt lat="43.24727" lon="3.29551">
        <ele>1417.6010742</ele>
        <time>2014-07-22T05:30:13Z</time>
      </trkpt>
      <trkpt lat="43.24712" lon="3.29569">
        <ele>1418.5625</ele>
        <time>2014-07-22T05:30:22Z</time>
      </trkpt>
      <trkpt lat="43.2471" lon="3.2957">
        <ele>1418.5625</ele>
        <time>2014-07-22T05:30:23Z</time>
      </trkpt>
      <trkpt lat="43.24706" lon="3.29571">
        <ele>1416.1591797</ele>
        <time>2014-07-22T05:30:25Z</time>
      </trkpt>
      <trkpt lat="43.24693" lon="3.2958">
        <ele>1416.1591797</ele>
        <time>2014-07-22T05:30:32Z</time>
      </trkpt>
      <trkpt lat="43.24684" lon="3.29589">
        <ele>1414.2365723</ele>
        <time>2014-07-22T05:30:37Z</time>
      </trkpt>
      <trkpt lat="43.2468" lon="3.29589">
        <ele>1416.6398926</ele>
        <time>2014-07-22T05:30:39Z</time>
      </trkpt>
      <trkpt lat="43.24671" lon="3.29584">
        <ele>1418.5625</ele>
        <time>2014-07-22T05:30:43Z</time>
      </trkpt>
      <trkpt lat="43.24666" lon="3.29576">
        <ele>1418.0817871</ele>
        <time>2014-07-22T05:30:47Z</time>
      </trkpt>
      <trkpt lat="43.2466" lon="3.29567">
        <ele>1419.5239258</ele>
        <time>2014-07-22T05:30:51Z</time>
      </trkpt>
      <trkpt lat="43.24657" lon="3.29563">
        <ele>1416.6398926</ele>
        <time>2014-07-22T05:30:53Z</time>
      </trkpt>
      <trkpt lat="43.24653" lon="3.29552">
        <ele>1420.9660645</ele>
        <time>2014-07-22T05:30:57Z</time>
      </trkpt>
      <trkpt lat="43.24653" lon="3.2955">
        <ele>1416.1591797</ele>
        <time>2014-07-22T05:30:58Z</time>
      </trkpt>
      <trkpt lat="43.2465" lon="3.2954">
        <ele>1420.0046387</ele>
        <time>2014-07-22T05:31:02Z</time>
      </trkpt>
      <trkpt lat="43.24647" lon="3.29528">
        <ele>1416.6398926</ele>
        <time>2014-07-22T05:31:07Z</time>
      </trkpt>
      <trkpt lat="43.24645" lon="3.29519">
        <ele>1420.9660645</ele>
        <time>2014-07-22T05:31:10Z</time>
      </trkpt>
      <trkpt lat="43.24645" lon="3.29517">
        <ele>1417.6010742</ele>
        <time>2014-07-22T05:31:11Z</time>
      </trkpt>
      <trkpt lat="43.24635" lon="3.29497">
        <ele>1412.3139648</ele>
        <time>2014-07-22T05:31:19Z</time>
      </trkpt>
      <trkpt lat="43.24633" lon="3.29491">
        <ele>1416.1591797</ele>
        <time>2014-07-22T05:31:21Z</time>
      </trkpt>
      <trkpt lat="43.24629" lon="3.29485">
        <ele>1419.0432129</ele>
        <time>2014-07-22T05:31:24Z</time>
      </trkpt>
      <trkpt lat="43.24624" lon="3.29477">
        <ele>1413.2753906</ele>
        <time>2014-07-22T05:31:27Z</time>
      </trkpt>
      <trkpt lat="43.24622" lon="3.29474">
        <ele>1416.6398926</ele>
        <time>2014-07-22T05:31:28Z</time>
      </trkpt>
      <trkpt lat="43.24613" lon="3.29454">
        <ele>1409.9106445</ele>
        <time>2014-07-22T05:31:36Z</time>
      </trkpt>
      <trkpt lat="43.24613" lon="3.29451">
        <ele>1414.7172852</ele>
        <time>2014-07-22T05:31:37Z</time>
      </trkpt>
      <trkpt lat="43.24609" lon="3.29446">
        <ele>1415.6787109</ele>
        <time>2014-07-22T05:31:39Z</time>
      </trkpt>
      <trkpt lat="43.24608" lon="3.29444">
        <ele>1415.6787109</ele>
        <time>2014-07-22T05:31:40Z</time>
      </trkpt>
      <trkpt lat="43.24599" lon="3.29425">
        <ele>1419.0432129</ele>
        <time>2014-07-22T05:31:48Z</time>
      </trkpt>
      <trkpt lat="43.24592" lon="3.29414">
        <ele>1420.4853516</ele>
        <time>2014-07-22T05:31:52Z</time>
      </trkpt>
      <trkpt lat="43.24586" lon="3.29401">
        <ele>1423.3693848</ele>
        <time>2014-07-22T05:31:56Z</time>
      </trkpt>
      <trkpt lat="43.24584" lon="3.29399">
        <ele>1417.6010742</ele>
        <time>2014-07-22T05:31:57Z</time>
      </trkpt>
      <trkpt lat="43.24574" lon="3.2938">
        <ele>1421.9272461</ele>
        <time>2014-07-22T05:32:05Z</time>
      </trkpt>
      <trkpt lat="43.24572" lon="3.29374">
        <ele>1415.197998</ele>
        <time>2014-07-22T05:32:07Z</time>
      </trkpt>
      <trkpt lat="43.24571" lon="3.29372">
        <ele>1419.0432129</ele>
        <time>2014-07-22T05:32:08Z</time>
      </trkpt>
      <trkpt lat="43.24569" lon="3.29368">
        <ele>1414.2365723</ele>
        <time>2014-07-22T05:32:10Z</time>
      </trkpt>
      <trkpt lat="43.24567" lon="3.29365">
        <ele>1415.197998</ele>
        <time>2014-07-22T05:32:11Z</time>
      </trkpt>
      <trkpt lat="43.24564" lon="3.29359">
        <ele>1418.5625</ele>
        <time>2014-07-22T05:32:13Z</time>
      </trkpt>
      <trkpt lat="43.24562" lon="3.29354">
        <ele>1420.0046387</ele>
        <time>2014-07-22T05:32:15Z</time>
      </trkpt>
      <trkpt lat="43.24557" lon="3.29342">
        <ele>1412.7946777</ele>
        <time>2014-07-22T05:32:19Z</time>
      </trkpt>
      <trkpt lat="43.24557" lon="3.29339">
        <ele>1417.6010742</ele>
        <time>2014-07-22T05:32:20Z</time>
      </trkpt>
      <trkpt lat="43.24551" lon="3.29321">
        <ele>1420.9660645</ele>
        <time>2014-07-22T05:32:26Z</time>
      </trkpt>
      <trkpt lat="43.2455" lon="3.29319">
        <ele>1416.6398926</ele>
        <time>2014-07-22T05:32:27Z</time>
      </trkpt>
      <trkpt lat="43.24548" lon="3.29317">
        <ele>1412.3139648</ele>
        <time>2014-07-22T05:32:28Z</time>
      </trkpt>
      <trkpt lat="43.24547" lon="3.29315">
        <ele>1415.197998</ele>
        <time>2014-07-22T05:32:29Z</time>
      </trkpt>
      <trkpt lat="43.24544" lon="3.2931">
        <ele>1419.5239258</ele>
        <time>2014-07-22T05:32:31Z</time>
      </trkpt>
      <trkpt lat="43.24543" lon="3.29307">
        <ele>1419.0432129</ele>
        <time>2014-07-22T05:32:32Z</time>
      </trkpt>
      <trkpt lat="43.24541" lon="3.29304">
        <ele>1423.3693848</ele>
        <time>2014-07-22T05:32:33Z</time>
      </trkpt>
      <trkpt lat="43.2454" lon="3.29302">
        <ele>1418.0817871</ele>
        <time>2014-07-22T05:32:34Z</time>
      </trkpt>
      <trkpt lat="43.24537" lon="3.29294">
        <ele>1419.5239258</ele>
        <time>2014-07-22T05:32:37Z</time>
      </trkpt>
      <trkpt lat="43.24533" lon="3.29286">
        <ele>1416.1591797</ele>
        <time>2014-07-22T05:32:40Z</time>
      </trkpt>
      <trkpt lat="43.24532" lon="3.29284">
        <ele>1419.0432129</ele>
        <time>2014-07-22T05:32:41Z</time>
      </trkpt>
      <trkpt lat="43.24525" lon="3.29275">
        <ele>1416.6398926</ele>
        <time>2014-07-22T05:32:45Z</time>
      </trkpt>
      <trkpt lat="43.24523" lon="3.2927">
        <ele>1420.4853516</ele>
        <time>2014-07-22T05:32:47Z</time>
      </trkpt>
      <trkpt lat="43.24521" lon="3.29268">
        <ele>1420.0046387</ele>
        <time>2014-07-22T05:32:48Z</time>
      </trkpt>
      <trkpt lat="43.24521" lon="3.29265">
        <ele>1412.3139648</ele>
        <time>2014-07-22T05:32:49Z</time>
      </trkpt>
      <trkpt lat="43.2452" lon="3.29263">
        <ele>1420.0046387</ele>
        <time>2014-07-22T05:32:50Z</time>
      </trkpt>
      <trkpt lat="43.24518" lon="3.29254">
        <ele>1415.6787109</ele>
        <time>2014-07-22T05:32:53Z</time>
      </trkpt>
      <trkpt lat="43.24505" lon="3.29231">
        <ele>1419.5239258</ele>
        <time>2014-07-22T05:33:02Z</time>
      </trkpt>
      <trkpt lat="43.2449" lon="3.29211">
        <ele>1416.6398926</ele>
        <time>2014-07-22T05:33:10Z</time>
      </trkpt>
      <trkpt lat="43.24489" lon="3.29209">
        <ele>1416.6398926</ele>
        <time>2014-07-22T05:33:11Z</time>
      </trkpt>
      <trkpt lat="43.24483" lon="3.29194">
        <ele>1418.5625</ele>
        <time>2014-07-22T05:33:17Z</time>
      </trkpt>
      <trkpt lat="43.24479" lon="3.29188">
        <ele>1415.197998</ele>
        <time>2014-07-22T05:33:20Z</time>
      </trkpt>
      <trkpt lat="43.24478" lon="3.29186">
        <ele>1419.0432129</ele>
        <time>2014-07-22T05:33:21Z</time>
      </trkpt>
      <trkpt lat="43.2447" lon="3.29168">
        <ele>1415.197998</ele>
        <time>2014-07-22T05:33:28Z</time>
      </trkpt>
      <trkpt lat="43.24466" lon="3.29157">
        <ele>1418.5625</ele>
        <time>2014-07-22T05:33:32Z</time>
      </trkpt>
      <trkpt lat="43.24461" lon="3.29147">
        <ele>1419.0432129</ele>
        <time>2014-07-22T05:33:36Z</time>
      </trkpt>
      <trkpt lat="43.24449" lon="3.29124">
        <ele>1416.6398926</ele>
        <time>2014-07-22T05:33:45Z</time>
      </trkpt>
      <trkpt lat="43.24446" lon="3.29118">
        <ele>1417.6010742</ele>
        <time>2014-07-22T05:33:47Z</time>
      </trkpt>
      <trkpt lat="43.2444" lon="3.29103">
        <ele>1413.2753906</ele>
        <time>2014-07-22T05:33:53Z</time>
      </trkpt>
      <trkpt lat="43.24438" lon="3.29101">
        <ele>1418.0817871</ele>
        <time>2014-07-22T05:33:54Z</time>
      </trkpt>
      <trkpt lat="43.2443" lon="3.29081">
        <ele>1420.4853516</ele>
        <time>2014-07-22T05:34:02Z</time>
      </trkpt>
      <trkpt lat="43.24427" lon="3.29078">
        <ele>1417.6010742</ele>
        <time>2014-07-22T05:34:03Z</time>
      </trkpt>
      <trkpt lat="43.24418" lon="3.2906">
        <ele>1421.9272461</ele>
        <time>2014-07-22T05:34:10Z</time>
      </trkpt>
      <trkpt lat="43.24418" lon="3.29059">
        <ele>1421.4465332</ele>
        <time>2014-07-22T05:34:11Z</time>
      </trkpt>
      <trkpt lat="43.24415" lon="3.29051">
        <ele>1419.5239258</ele>
        <time>2014-07-22T05:34:14Z</time>
      </trkpt>
      <trkpt lat="43.24409" lon="3.29035">
        <ele>1423.3693848</ele>
        <time>2014-07-22T05:34:20Z</time>
      </trkpt>
      <trkpt lat="43.24408" lon="3.29033">
        <ele>1420.0046387</ele>
        <time>2014-07-22T05:34:21Z</time>
      </trkpt>
      <trkpt lat="43.24406" lon="3.29028">
        <ele>1419.5239258</ele>
        <time>2014-07-22T05:34:23Z</time>
      </trkpt>
      <trkpt lat="43.24405" lon="3.29026">
        <ele>1423.8498535</ele>
        <time>2014-07-22T05:34:24Z</time>
      </trkpt>
      <trkpt lat="43.24404" lon="3.29023">
        <ele>1420.4853516</ele>
        <time>2014-07-22T05:34:25Z</time>
      </trkpt>
      <trkpt lat="43.24401" lon="3.29018">
        <ele>1417.1206055</ele>
        <time>2014-07-22T05:34:27Z</time>
      </trkpt>
      <trkpt lat="43.244" lon="3.29013">
        <ele>1420.4853516</ele>
        <time>2014-07-22T05:34:29Z</time>
      </trkpt>
      <trkpt lat="43.24398" lon="3.29011">
        <ele>1417.1206055</ele>
        <time>2014-07-22T05:34:30Z</time>
      </trkpt>
      <trkpt lat="43.2439" lon="3.28992">
        <ele>1420.4853516</ele>
        <time>2014-07-22T05:34:37Z</time>
      </trkpt>
      <trkpt lat="43.24388" lon="3.28987">
        <ele>1416.6398926</ele>
        <time>2014-07-22T05:34:39Z</time>
      </trkpt>
      <trkpt lat="43.24386" lon="3.28982">
        <ele>1420.0046387</ele>
        <time>2014-07-22T05:34:41Z</time>
      </trkpt>
      <trkpt lat="43.24385" lon="3.28979">
        <ele>1418.5625</ele>
        <time>2014-07-22T05:34:42Z</time>
      </trkpt>
      <trkpt lat="43.24373" lon="3.28949">
        <ele>1418.5625</ele>
        <time>2014-07-22T05:34:53Z</time>
      </trkpt>
      <trkpt lat="43.24373" lon="3.28946">
        <ele>1422.407959</ele>
        <time>2014-07-22T05:34:54Z</time>
      </trkpt>
      <trkpt lat="43.24372" lon="3.28944">
        <ele>1419.0432129</ele>
        <time>2014-07-22T05:34:55Z</time>
      </trkpt>
      <trkpt lat="43.24371" lon="3.28941">
        <ele>1415.197998</ele>
        <time>2014-07-22T05:34:56Z</time>
      </trkpt>
      <trkpt lat="43.2437" lon="3.28939">
        <ele>1426.2531738</ele>
        <time>2014-07-22T05:34:57Z</time>
      </trkpt>
      <trkpt lat="43.24368" lon="3.28934">
        <ele>1423.3693848</ele>
        <time>2014-07-22T05:34:59Z</time>
      </trkpt>
      <trkpt lat="43.24366" lon="3.28926">
        <ele>1419.5239258</ele>
        <time>2014-07-22T05:35:02Z</time>
      </trkpt>
      <trkpt lat="43.24365" lon="3.28924">
        <ele>1420.4853516</ele>
        <time>2014-07-22T05:35:03Z</time>
      </trkpt>
      <trkpt lat="43.24358" lon="3.28905">
        <ele>1419.5239258</ele>
        <time>2014-07-22T05:35:10Z</time>
      </trkpt>
      <trkpt lat="43.24354" lon="3.289">
        <ele>1414.2365723</ele>
        <time>2014-07-22T05:35:12Z</time>
      </trkpt>
      <trkpt lat="43.24353" lon="3.28898">
        <ele>1422.407959</ele>
        <time>2014-07-22T05:35:13Z</time>
      </trkpt>
      <trkpt lat="43.24352" lon="3.28895">
        <ele>1416.6398926</ele>
        <time>2014-07-22T05:35:14Z</time>
      </trkpt>
      <trkpt lat="43.24344" lon="3.28877">
        <ele>1421.4465332</ele>
        <time>2014-07-22T05:35:20Z</time>
      </trkpt>
      <trkpt lat="43.2434" lon="3.2887">
        <ele>1419.5239258</ele>
        <time>2014-07-22T05:35:23Z</time>
      </trkpt>
      <trkpt lat="43.24338" lon="3.28865">
        <ele>1422.8886719</ele>
        <time>2014-07-22T05:35:25Z</time>
      </trkpt>
      <trkpt lat="43.24337" lon="3.28862">
        <ele>1421.9272461</ele>
        <time>2014-07-22T05:35:26Z</time>
      </trkpt>
      <trkpt lat="43.24336" lon="3.28859">
        <ele>1418.5625</ele>
        <time>2014-07-22T05:35:27Z</time>
      </trkpt>
      <trkpt lat="43.24335" lon="3.28857">
        <ele>1421.9272461</ele>
        <time>2014-07-22T05:35:28Z</time>
      </trkpt>
      <trkpt lat="43.24333" lon="3.28852">
        <ele>1416.1591797</ele>
        <time>2014-07-22T05:35:30Z</time>
      </trkpt>
      <trkpt lat="43.24332" lon="3.2885">
        <ele>1419.5239258</ele>
        <time>2014-07-22T05:35:31Z</time>
      </trkpt>
      <trkpt lat="43.24327" lon="3.2884">
        <ele>1419.5239258</ele>
        <time>2014-07-22T05:35:35Z</time>
      </trkpt>
      <trkpt lat="43.24324" lon="3.28832">
        <ele>1416.1591797</ele>
        <time>2014-07-22T05:35:38Z</time>
      </trkpt>
      <trkpt lat="43.24323" lon="3.28829">
        <ele>1420.4853516</ele>
        <time>2014-07-22T05:35:39Z</time>
      </trkpt>
      <trkpt lat="43.24318" lon="3.28819">
        <ele>1413.2753906</ele>
        <time>2014-07-22T05:35:43Z</time>
      </trkpt>
      <trkpt lat="43.24318" lon="3.28816">
        <ele>1418.5625</ele>
        <time>2014-07-22T05:35:44Z</time>
      </trkpt>
      <trkpt lat="43.24307" lon="3.28793">
        <ele>1419.0432129</ele>
        <time>2014-07-22T05:35:53Z</time>
      </trkpt>
      <trkpt lat="43.24294" lon="3.28755">
        <ele>1418.0817871</ele>
        <time>2014-07-22T05:36:07Z</time>
      </trkpt>
      <trkpt lat="43.24285" lon="3.28735">
        <ele>1421.9272461</ele>
        <time>2014-07-22T05:36:14Z</time>
      </trkpt>
      <trkpt lat="43.2428" lon="3.28725">
        <ele>1417.6010742</ele>
        <time>2014-07-22T05:36:18Z</time>
      </trkpt>
      <trkpt lat="43.24279" lon="3.28722">
        <ele>1418.0817871</ele>
        <time>2014-07-22T05:36:19Z</time>
      </trkpt>
      <trkpt lat="43.24273" lon="3.28705">
        <ele>1413.7558594</ele>
        <time>2014-07-22T05:36:25Z</time>
      </trkpt>
      <trkpt lat="43.24272" lon="3.28703">
        <ele>1416.1591797</ele>
        <time>2014-07-22T05:36:26Z</time>
      </trkpt>
      <trkpt lat="43.24272" lon="3.287">
        <ele>1421.9272461</ele>
        <time>2014-07-22T05:36:27Z</time>
      </trkpt>
      <trkpt lat="43.24271" lon="3.28698">
        <ele>1415.197998</ele>
        <time>2014-07-22T05:36:28Z</time>
      </trkpt>
      <trkpt lat="43.2427" lon="3.28696">
        <ele>1419.0432129</ele>
        <time>2014-07-22T05:36:29Z</time>
      </trkpt>
      <trkpt lat="43.24255" lon="3.28668">
        <ele>1420.0046387</ele>
        <time>2014-07-22T05:36:40Z</time>
      </trkpt>
      <trkpt lat="43.24252" lon="3.28662">
        <ele>1416.1591797</ele>
        <time>2014-07-22T05:36:42Z</time>
      </trkpt>
      <trkpt lat="43.24251" lon="3.28655">
        <ele>1420.0046387</ele>
        <time>2014-07-22T05:36:45Z</time>
      </trkpt>
      <trkpt lat="43.24249" lon="3.28646">
        <ele>1416.6398926</ele>
        <time>2014-07-22T05:36:48Z</time>
      </trkpt>
      <trkpt lat="43.24246" lon="3.28636">
        <ele>1420.9660645</ele>
        <time>2014-07-22T05:36:51Z</time>
      </trkpt>
      <trkpt lat="43.24245" lon="3.28634">
        <ele>1421.4465332</ele>
        <time>2014-07-22T05:36:52Z</time>
      </trkpt>
      <trkpt lat="43.24244" lon="3.28631">
        <ele>1417.1206055</ele>
        <time>2014-07-22T05:36:53Z</time>
      </trkpt>
      <trkpt lat="43.24243" lon="3.28629">
        <ele>1421.4465332</ele>
        <time>2014-07-22T05:36:54Z</time>
      </trkpt>
      <trkpt lat="43.24241" lon="3.28626">
        <ele>1416.1591797</ele>
        <time>2014-07-22T05:36:55Z</time>
      </trkpt>
      <trkpt lat="43.24238" lon="3.28622">
        <ele>1421.4465332</ele>
        <time>2014-07-22T05:36:57Z</time>
      </trkpt>
      <trkpt lat="43.24236" lon="3.28619">
        <ele>1417.6010742</ele>
        <time>2014-07-22T05:36:58Z</time>
      </trkpt>
      <trkpt lat="43.24231" lon="3.28605">
        <ele>1423.3693848</ele>
        <time>2014-07-22T05:37:03Z</time>
      </trkpt>
      <trkpt lat="43.2423" lon="3.28602">
        <ele>1419.5239258</ele>
        <time>2014-07-22T05:37:04Z</time>
      </trkpt>
      <trkpt lat="43.24229" lon="3.286">
        <ele>1415.6787109</ele>
        <time>2014-07-22T05:37:05Z</time>
      </trkpt>
      <trkpt lat="43.24227" lon="3.28597">
        <ele>1418.5625</ele>
        <time>2014-07-22T05:37:06Z</time>
      </trkpt>
      <trkpt lat="43.24214" lon="3.28567">
        <ele>1414.7172852</ele>
        <time>2014-07-22T05:37:18Z</time>
      </trkpt>
      <trkpt lat="43.24212" lon="3.28562">
        <ele>1420.0046387</ele>
        <time>2014-07-22T05:37:20Z</time>
      </trkpt>
      <trkpt lat="43.24204" lon="3.28542">
        <ele>1416.1591797</ele>
        <time>2014-07-22T05:37:28Z</time>
      </trkpt>
      <trkpt lat="43.24203" lon="3.2854">
        <ele>1419.5239258</ele>
        <time>2014-07-22T05:37:29Z</time>
      </trkpt>
      <trkpt lat="43.24202" lon="3.28537">
        <ele>1415.6787109</ele>
        <time>2014-07-22T05:37:30Z</time>
      </trkpt>
      <trkpt lat="43.24195" lon="3.28521">
        <ele>1419.0432129</ele>
        <time>2014-07-22T05:37:36Z</time>
      </trkpt>
      <trkpt lat="43.24189" lon="3.28502">
        <ele>1419.5239258</ele>
        <time>2014-07-22T05:37:43Z</time>
      </trkpt>
      <trkpt lat="43.24185" lon="3.28491">
        <ele>1415.197998</ele>
        <time>2014-07-22T05:37:47Z</time>
      </trkpt>
      <trkpt lat="43.24182" lon="3.28486">
        <ele>1419.0432129</ele>
        <time>2014-07-22T05:37:49Z</time>
      </trkpt>
      <trkpt lat="43.24175" lon="3.2847">
        <ele>1421.9272461</ele>
        <time>2014-07-22T05:37:55Z</time>
      </trkpt>
      <trkpt lat="43.24171" lon="3.28462">
        <ele>1419.0432129</ele>
        <time>2014-07-22T05:37:58Z</time>
      </trkpt>
      <trkpt lat="43.24168" lon="3.28457">
        <ele>1420.4853516</ele>
        <time>2014-07-22T05:38:00Z</time>
      </trkpt>
      <trkpt lat="43.24164" lon="3.28449">
        <ele>1417.1206055</ele>
        <time>2014-07-22T05:38:04Z</time>
      </trkpt>
      <trkpt lat="43.24163" lon="3.28446">
        <ele>1419.0432129</ele>
        <time>2014-07-22T05:38:05Z</time>
      </trkpt>
      <trkpt lat="43.24156" lon="3.28427">
        <ele>1415.197998</ele>
        <time>2014-07-22T05:38:12Z</time>
      </trkpt>
      <trkpt lat="43.24151" lon="3.28411">
        <ele>1419.0432129</ele>
        <time>2014-07-22T05:38:18Z</time>
      </trkpt>
      <trkpt lat="43.24138" lon="3.28383">
        <ele>1420.0046387</ele>
        <time>2014-07-22T05:38:29Z</time>
      </trkpt>
      <trkpt lat="43.2413" lon="3.2836">
        <ele>1418.0817871</ele>
        <time>2014-07-22T05:38:37Z</time>
      </trkpt>
      <trkpt lat="43.24126" lon="3.2835">
        <ele>1413.2753906</ele>
        <time>2014-07-22T05:38:41Z</time>
      </trkpt>
      <trkpt lat="43.24124" lon="3.28347">
        <ele>1416.6398926</ele>
        <time>2014-07-22T05:38:42Z</time>
      </trkpt>
      <trkpt lat="43.24122" lon="3.28342">
        <ele>1421.4465332</ele>
        <time>2014-07-22T05:38:44Z</time>
      </trkpt>
      <trkpt lat="43.24121" lon="3.2834">
        <ele>1421.4465332</ele>
        <time>2014-07-22T05:38:45Z</time>
      </trkpt>
      <trkpt lat="43.2412" lon="3.28336">
        <ele>1417.6010742</ele>
        <time>2014-07-22T05:38:47Z</time>
      </trkpt>
      <trkpt lat="43.24104" lon="3.28295">
        <ele>1419.5239258</ele>
        <time>2014-07-22T05:39:02Z</time>
      </trkpt>
      <trkpt lat="43.24102" lon="3.28294">
        <ele>1417.1206055</ele>
        <time>2014-07-22T05:39:03Z</time>
      </trkpt>
      <trkpt lat="43.24094" lon="3.28275">
        <ele>1420.4853516</ele>
        <time>2014-07-22T05:39:10Z</time>
      </trkpt>
      <trkpt lat="43.24082" lon="3.28241">
        <ele>1418.0817871</ele>
        <time>2014-07-22T05:39:23Z</time>
      </trkpt>
      <trkpt lat="43.24069" lon="3.28206">
        <ele>1419.5239258</ele>
        <time>2014-07-22T05:39:37Z</time>
      </trkpt>
      <trkpt lat="43.24068" lon="3.28204">
        <ele>1418.0817871</ele>
        <time>2014-07-22T05:39:38Z</time>
      </trkpt>
      <trkpt lat="43.24058" lon="3.28179">
        <ele>1414.7172852</ele>
        <time>2014-07-22T05:39:47Z</time>
      </trkpt>
      <trkpt lat="43.24057" lon="3.28177">
        <ele>1416.1591797</ele>
        <time>2014-07-22T05:39:48Z</time>
      </trkpt>
      <trkpt lat="43.24054" lon="3.28172">
        <ele>1419.5239258</ele>
        <time>2014-07-22T05:39:50Z</time>
      </trkpt>
      <trkpt lat="43.24052" lon="3.28167">
        <ele>1419.0432129</ele>
        <time>2014-07-22T05:39:52Z</time>
      </trkpt>
      <trkpt lat="43.24044" lon="3.28145">
        <ele>1417.6010742</ele>
        <time>2014-07-22T05:40:00Z</time>
      </trkpt>
      <trkpt lat="43.24045" lon="3.28145">
        <ele>1417.6010742</ele>
        <time>2014-07-22T05:40:14Z</time>
      </trkpt>
      <trkpt lat="43.24047" lon="3.28144">
        <ele>1418.0817871</ele>
        <time>2014-07-22T05:40:36Z</time>
      </trkpt>
      <trkpt lat="43.24049" lon="3.28143">
        <ele>1414.7172852</ele>
        <time>2014-07-22T05:40:39Z</time>
      </trkpt>
      <trkpt lat="43.2405" lon="3.28143">
        <ele>1415.6787109</ele>
        <time>2014-07-22T05:40:40Z</time>
      </trkpt>
      <trkpt lat="43.24054" lon="3.2814">
        <ele>1420.4853516</ele>
        <time>2014-07-22T05:40:45Z</time>
      </trkpt>
      <trkpt lat="43.24057" lon="3.28138">
        <ele>1416.1591797</ele>
        <time>2014-07-22T05:40:47Z</time>
      </trkpt>
      <trkpt lat="43.24058" lon="3.28138">
        <ele>1417.1206055</ele>
        <time>2014-07-22T05:40:48Z</time>
      </trkpt>
      <trkpt lat="43.24067" lon="3.28127">
        <ele>1419.0432129</ele>
        <time>2014-07-22T05:40:55Z</time>
      </trkpt>
      <trkpt lat="43.24071" lon="3.28123">
        <ele>1418.0817871</ele>
        <time>2014-07-22T05:41:11Z</time>
      </trkpt>
      <trkpt lat="43.24073" lon="3.28127">
        <ele>1417.1206055</ele>
        <time>2014-07-22T05:41:30Z</time>
      </trkpt>
      <trkpt lat="43.24073" lon="3.28124">
        <ele>1418.0817871</ele>
        <time>2014-07-22T05:41:33Z</time>
      </trkpt>
      <trkpt lat="43.24076" lon="3.28126">
        <ele>1417.1206055</ele>
        <time>2014-07-22T05:41:38Z</time>
      </trkpt>
      <trkpt lat="43.24084" lon="3.28134">
        <ele>1416.6398926</ele>
        <time>2014-07-22T05:41:45Z</time>
      </trkpt>
      <trkpt lat="43.24093" lon="3.28143">
        <ele>1415.197998</ele>
        <time>2014-07-22T05:41:50Z</time>
      </trkpt>
      <trkpt lat="43.2411" lon="3.28184">
        <ele>1417.1206055</ele>
        <time>2014-07-22T05:42:03Z</time>
      </trkpt>
      <trkpt lat="43.24114" lon="3.28192">
        <ele>1415.6787109</ele>
        <time>2014-07-22T05:42:06Z</time>
      </trkpt>
      <trkpt lat="43.24116" lon="3.28194">
        <ele>1420.0046387</ele>
        <time>2014-07-22T05:42:07Z</time>
      </trkpt>
      <trkpt lat="43.24117" lon="3.28196">
        <ele>1418.0817871</ele>
        <time>2014-07-22T05:42:08Z</time>
      </trkpt>
      <trkpt lat="43.24121" lon="3.28207">
        <ele>1416.6398926</ele>
        <time>2014-07-22T05:42:13Z</time>
      </trkpt>
      <trkpt lat="43.24123" lon="3.28209">
        <ele>1416.6398926</ele>
        <time>2014-07-22T05:42:15Z</time>
      </trkpt>
      <trkpt lat="43.2413" lon="3.28226">
        <ele>1416.6398926</ele>
        <time>2014-07-22T05:42:22Z</time>
      </trkpt>
      <trkpt lat="43.2413" lon="3.28233">
        <ele>1416.6398926</ele>
        <time>2014-07-22T05:42:25Z</time>
      </trkpt>
      <trkpt lat="43.24139" lon="3.28252">
        <ele>1418.5625</ele>
        <time>2014-07-22T05:42:33Z</time>
      </trkpt>
      <trkpt lat="43.24152" lon="3.28275">
        <ele>1418.0817871</ele>
        <time>2014-07-22T05:42:44Z</time>
      </trkpt>
      <trkpt lat="43.24172" lon="3.28314">
        <ele>1413.7558594</ele>
        <time>2014-07-22T05:42:56Z</time>
      </trkpt>
      <trkpt lat="43.24174" lon="3.28316">
        <ele>1417.6010742</ele>
        <time>2014-07-22T05:42:57Z</time>
      </trkpt>
      <trkpt lat="43.24187" lon="3.28335">
        <ele>1415.6787109</ele>
        <time>2014-07-22T05:43:07Z</time>
      </trkpt>
      <trkpt lat="43.24189" lon="3.28349">
        <ele>1414.7172852</ele>
        <time>2014-07-22T05:43:13Z</time>
      </trkpt>
      <trkpt lat="43.242" lon="3.28365">
        <ele>1415.6787109</ele>
        <time>2014-07-22T05:43:20Z</time>
      </trkpt>
      <trkpt lat="43.24209" lon="3.28372">
        <ele>1415.197998</ele>
        <time>2014-07-22T05:43:25Z</time>
      </trkpt>
      <trkpt lat="43.24218" lon="3.28402">
        <ele>1415.6787109</ele>
        <time>2014-07-22T05:43:36Z</time>
      </trkpt>
      <trkpt lat="43.24229" lon="3.28424">
        <ele>1418.0817871</ele>
        <time>2014-07-22T05:43:44Z</time>
      </trkpt>
      <trkpt lat="43.24236" lon="3.28442">
        <ele>1414.7172852</ele>
        <time>2014-07-22T05:43:51Z</time>
      </trkpt>
      <trkpt lat="43.24237" lon="3.28444">
        <ele>1415.6787109</ele>
        <time>2014-07-22T05:43:52Z</time>
      </trkpt>
      <trkpt lat="43.24255" lon="3.28479">
        <ele>1415.6787109</ele>
        <time>2014-07-22T05:44:06Z</time>
      </trkpt>
      <trkpt lat="43.2426" lon="3.28489">
        <ele>1415.6787109</ele>
        <time>2014-07-22T05:44:11Z</time>
      </trkpt>
      <trkpt lat="43.24268" lon="3.2851">
        <ele>1413.7558594</ele>
        <time>2014-07-22T05:44:20Z</time>
      </trkpt>
      <trkpt lat="43.24275" lon="3.28523">
        <ele>1414.7172852</ele>
        <time>2014-07-22T05:44:25Z</time>
      </trkpt>
      <trkpt lat="43.24278" lon="3.28536">
        <ele>1415.197998</ele>
        <time>2014-07-22T05:44:29Z</time>
      </trkpt>
      <trkpt lat="43.24292" lon="3.28565">
        <ele>1417.1206055</ele>
        <time>2014-07-22T05:44:41Z</time>
      </trkpt>
      <trkpt lat="43.24296" lon="3.28575">
        <ele>1413.2753906</ele>
        <time>2014-07-22T05:44:45Z</time>
      </trkpt>
      <trkpt lat="43.24297" lon="3.28577">
        <ele>1416.6398926</ele>
        <time>2014-07-22T05:44:46Z</time>
      </trkpt>
      <trkpt lat="43.243" lon="3.28578">
        <ele>1416.1591797</ele>
        <time>2014-07-22T05:44:47Z</time>
      </trkpt>
      <trkpt lat="43.24313" lon="3.2861">
        <ele>1416.1591797</ele>
        <time>2014-07-22T05:44:59Z</time>
      </trkpt>
      <trkpt lat="43.24321" lon="3.28643">
        <ele>1415.197998</ele>
        <time>2014-07-22T05:45:11Z</time>
      </trkpt>
      <trkpt lat="43.24335" lon="3.2867">
        <ele>1416.6398926</ele>
        <time>2014-07-22T05:45:23Z</time>
      </trkpt>
      <trkpt lat="43.24348" lon="3.28702">
        <ele>1416.6398926</ele>
        <time>2014-07-22T05:45:35Z</time>
      </trkpt>
      <trkpt lat="43.24354" lon="3.28709">
        <ele>1415.197998</ele>
        <time>2014-07-22T05:45:39Z</time>
      </trkpt>
      <trkpt lat="43.24362" lon="3.28731">
        <ele>1417.1206055</ele>
        <time>2014-07-22T05:45:48Z</time>
      </trkpt>
      <trkpt lat="43.24368" lon="3.28746">
        <ele>1414.2365723</ele>
        <time>2014-07-22T05:45:54Z</time>
      </trkpt>
      <trkpt lat="43.24384" lon="3.28781">
        <ele>1413.7558594</ele>
        <time>2014-07-22T05:46:09Z</time>
      </trkpt>
      <trkpt lat="43.24389" lon="3.28796">
        <ele>1415.6787109</ele>
        <time>2014-07-22T05:46:13Z</time>
      </trkpt>
      <trkpt lat="43.24396" lon="3.28815">
        <ele>1414.7172852</ele>
        <time>2014-07-22T05:46:20Z</time>
      </trkpt>
      <trkpt lat="43.24405" lon="3.28841">
        <ele>1415.197998</ele>
        <time>2014-07-22T05:46:30Z</time>
      </trkpt>
      <trkpt lat="43.24408" lon="3.28847">
        <ele>1414.7172852</ele>
        <time>2014-07-22T05:46:32Z</time>
      </trkpt>
      <trkpt lat="43.24418" lon="3.2887">
        <ele>1414.2365723</ele>
        <time>2014-07-22T05:46:42Z</time>
      </trkpt>
      <trkpt lat="43.24423" lon="3.28881">
        <ele>1419.5239258</ele>
        <time>2014-07-22T05:46:48Z</time>
      </trkpt>
      <trkpt lat="43.24421" lon="3.28888">
        <ele>1417.6010742</ele>
        <time>2014-07-22T05:46:49Z</time>
      </trkpt>
      <trkpt lat="43.24422" lon="3.28894">
        <ele>1417.1206055</ele>
        <time>2014-07-22T05:46:51Z</time>
      </trkpt>
      <trkpt lat="43.24429" lon="3.28907">
        <ele>1418.5625</ele>
        <time>2014-07-22T05:46:57Z</time>
      </trkpt>
      <trkpt lat="43.2444" lon="3.28921">
        <ele>1417.1206055</ele>
        <time>2014-07-22T05:47:02Z</time>
      </trkpt>
      <trkpt lat="43.24452" lon="3.28962">
        <ele>1413.7558594</ele>
        <time>2014-07-22T05:47:16Z</time>
      </trkpt>
      <trkpt lat="43.24459" lon="3.28987">
        <ele>1417.6010742</ele>
        <time>2014-07-22T05:47:26Z</time>
      </trkpt>
      <trkpt lat="43.24466" lon="3.29008">
        <ele>1413.2753906</ele>
        <time>2014-07-22T05:47:33Z</time>
      </trkpt>
      <trkpt lat="43.24468" lon="3.2901">
        <ele>1413.2753906</ele>
        <time>2014-07-22T05:47:34Z</time>
      </trkpt>
      <trkpt lat="43.24473" lon="3.29022">
        <ele>1417.1206055</ele>
        <time>2014-07-22T05:47:38Z</time>
      </trkpt>
      <trkpt lat="43.24479" lon="3.29036">
        <ele>1415.197998</ele>
        <time>2014-07-22T05:47:43Z</time>
      </trkpt>
      <trkpt lat="43.24502" lon="3.29066">
        <ele>1415.197998</ele>
        <time>2014-07-22T05:47:58Z</time>
      </trkpt>
      <trkpt lat="43.24506" lon="3.29069">
        <ele>1414.2365723</ele>
        <time>2014-07-22T05:48:00Z</time>
      </trkpt>
      <trkpt lat="43.24508" lon="3.29089">
        <ele>1417.1206055</ele>
        <time>2014-07-22T05:48:08Z</time>
      </trkpt>
      <trkpt lat="43.24517" lon="3.29108">
        <ele>1414.2365723</ele>
        <time>2014-07-22T05:48:18Z</time>
      </trkpt>
      <trkpt lat="43.24522" lon="3.29114">
        <ele>1416.6398926</ele>
        <time>2014-07-22T05:48:21Z</time>
      </trkpt>
      <trkpt lat="43.24527" lon="3.29121">
        <ele>1415.197998</ele>
        <time>2014-07-22T05:48:24Z</time>
      </trkpt>
      <trkpt lat="43.2453" lon="3.29125">
        <ele>1416.6398926</ele>
        <time>2014-07-22T05:48:26Z</time>
      </trkpt>
      <trkpt lat="43.24543" lon="3.29149">
        <ele>1415.6787109</ele>
        <time>2014-07-22T05:48:36Z</time>
      </trkpt>
      <trkpt lat="43.24548" lon="3.29152">
        <ele>1412.7946777</ele>
        <time>2014-07-22T05:48:40Z</time>
      </trkpt>
      <trkpt lat="43.24549" lon="3.29153">
        <ele>1412.7946777</ele>
        <time>2014-07-22T05:48:41Z</time>
      </trkpt>
      <trkpt lat="43.24553" lon="3.29156">
        <ele>1414.2365723</ele>
        <time>2014-07-22T05:48:44Z</time>
      </trkpt>
      <trkpt lat="43.24555" lon="3.29158">
        <ele>1416.1591797</ele>
        <time>2014-07-22T05:48:46Z</time>
      </trkpt>
      <trkpt lat="43.24564" lon="3.29165">
        <ele>1415.6787109</ele>
        <time>2014-07-22T05:48:51Z</time>
      </trkpt>
      <trkpt lat="43.24564" lon="3.29172">
        <ele>1418.0817871</ele>
        <time>2014-07-22T05:48:53Z</time>
      </trkpt>
      <trkpt lat="43.24565" lon="3.29196">
        <ele>1414.7172852</ele>
        <time>2014-07-22T05:49:00Z</time>
      </trkpt>
      <trkpt lat="43.24581" lon="3.29208">
        <ele>1417.6010742</ele>
        <time>2014-07-22T05:49:11Z</time>
      </trkpt>
      <trkpt lat="43.24581" lon="3.29209">
        <ele>1414.7172852</ele>
        <time>2014-07-22T05:49:12Z</time>
      </trkpt>
      <trkpt lat="43.24595" lon="3.29243">
        <ele>1414.2365723</ele>
        <time>2014-07-22T05:49:28Z</time>
      </trkpt>
      <trkpt lat="43.24614" lon="3.2927">
        <ele>1415.197998</ele>
        <time>2014-07-22T05:49:39Z</time>
      </trkpt>
      <trkpt lat="43.24624" lon="3.29275">
        <ele>1414.2365723</ele>
        <time>2014-07-22T05:49:44Z</time>
      </trkpt>
      <trkpt lat="43.24625" lon="3.2928">
        <ele>1415.6787109</ele>
        <time>2014-07-22T05:49:46Z</time>
      </trkpt>
      <trkpt lat="43.24629" lon="3.2931">
        <ele>1415.197998</ele>
        <time>2014-07-22T05:49:54Z</time>
      </trkpt>
      <trkpt lat="43.24632" lon="3.29324">
        <ele>1414.7172852</ele>
        <time>2014-07-22T05:49:57Z</time>
      </trkpt>
      <trkpt lat="43.24652" lon="3.29366">
        <ele>1415.6787109</ele>
        <time>2014-07-22T05:50:06Z</time>
      </trkpt>
      <trkpt lat="43.24656" lon="3.29392">
        <ele>1413.2753906</ele>
        <time>2014-07-22T05:50:15Z</time>
      </trkpt>
      <trkpt lat="43.24659" lon="3.29397">
        <ele>1414.7172852</ele>
        <time>2014-07-22T05:50:17Z</time>
      </trkpt>
      <trkpt lat="43.24671" lon="3.29411">
        <ele>1414.2365723</ele>
        <time>2014-07-22T05:50:24Z</time>
      </trkpt>
      <trkpt lat="43.24674" lon="3.29413">
        <ele>1410.3913574</ele>
        <time>2014-07-22T05:50:26Z</time>
      </trkpt>
      <trkpt lat="43.24676" lon="3.29417">
        <ele>1414.2365723</ele>
        <time>2014-07-22T05:50:27Z</time>
      </trkpt>
      <trkpt lat="43.24682" lon="3.29426">
        <ele>1414.7172852</ele>
        <time>2014-07-22T05:50:31Z</time>
      </trkpt>
      <trkpt lat="43.24702" lon="3.29464">
        <ele>1416.1591797</ele>
        <time>2014-07-22T05:50:46Z</time>
      </trkpt>
      <trkpt lat="43.24707" lon="3.29469">
        <ele>1414.7172852</ele>
        <time>2014-07-22T05:50:49Z</time>
      </trkpt>
      <trkpt lat="43.24707" lon="3.29474">
        <ele>1415.197998</ele>
        <time>2014-07-22T05:50:51Z</time>
      </trkpt>
      <trkpt lat="43.24708" lon="3.29477">
        <ele>1413.7558594</ele>
        <time>2014-07-22T05:50:52Z</time>
      </trkpt>
      <trkpt lat="43.24715" lon="3.29489">
        <ele>1413.2753906</ele>
        <time>2014-07-22T05:50:57Z</time>
      </trkpt>
      <trkpt lat="43.24725" lon="3.295">
        <ele>1416.1591797</ele>
        <time>2014-07-22T05:51:00Z</time>
      </trkpt>
      <trkpt lat="43.24728" lon="3.29505">
        <ele>1414.2365723</ele>
        <time>2014-07-22T05:51:01Z</time>
      </trkpt>
      <trkpt lat="43.24737" lon="3.29543">
        <ele>1416.1591797</ele>
        <time>2014-07-22T05:51:14Z</time>
      </trkpt>
      <trkpt lat="43.24737" lon="3.29543">
        <ele>1413.2753906</ele>
        <time>2014-07-22T05:51:15Z</time>
      </trkpt>
      <trkpt lat="43.24736" lon="3.29544">
        <ele>1416.1591797</ele>
        <time>2014-07-22T05:51:16Z</time>
      </trkpt>
      <trkpt lat="43.24725" lon="3.29564">
        <ele>1411.8334961</ele>
        <time>2014-07-22T05:51:27Z</time>
      </trkpt>
      <trkpt lat="43.24723" lon="3.29566">
        <ele>1413.2753906</ele>
        <time>2014-07-22T05:51:28Z</time>
      </trkpt>
      <trkpt lat="43.24707" lon="3.29571">
        <ele>1415.6787109</ele>
        <time>2014-07-22T05:51:36Z</time>
      </trkpt>
      <trkpt lat="43.24693" lon="3.29584">
        <ele>1414.2365723</ele>
        <time>2014-07-22T05:51:44Z</time>
      </trkpt>
      <trkpt lat="43.24686" lon="3.29578">
        <ele>1412.7946777</ele>
        <time>2014-07-22T05:51:50Z</time>
      </trkpt>
      <trkpt lat="43.24677" lon="3.29573">
        <ele>1415.197998</ele>
        <time>2014-07-22T05:51:55Z</time>
      </trkpt>
      <trkpt lat="43.24674" lon="3.29569">
        <ele>1416.1591797</ele>
        <time>2014-07-22T05:51:57Z</time>
      </trkpt>
      <trkpt lat="43.24662" lon="3.29545">
        <ele>1415.6787109</ele>
        <time>2014-07-22T05:52:08Z</time>
      </trkpt>
      <trkpt lat="43.24643" lon="3.29519">
        <ele>1415.6787109</ele>
        <time>2014-07-22T05:52:19Z</time>
      </trkpt>
      <trkpt lat="43.24635" lon="3.29489">
        <ele>1414.7172852</ele>
        <time>2014-07-22T05:52:30Z</time>
      </trkpt>
      <trkpt lat="43.24633" lon="3.2947">
        <ele>1415.197998</ele>
        <time>2014-07-22T05:52:36Z</time>
      </trkpt>
    </trkseg>
  </trk>
</gpx>